<?xml version="1.0" encoding="UTF-8" standalone="no" ?>
<gpx xmlns="http://www.topografix.com/GPX/1/1" creator="MapSource 6.16.3" version="1.1" xmlns:xsi="http://www.w3.org/2001/XMLSchema-instance" xsi:schemaLocation="http://www.topografix.com/GPX/1/1 http://www.topografix.com/GPX/1/1/gpx.xsd">

  <metadata>
    <link href="http://www.garmin.com">
      <text>Garmin International</text>
    </link>
    <time>2015-07-08T04:58:24Z</time>
    <bounds maxlat="54.582532681524754" maxlon="16.874751225113869" minlat="54.282443281263113" minlon="16.196107836440206"/>
  </metadata>

  <trk>
    <name>ACTIVE LOG 008</name>
    <extensions>
      <gpxx:TrackExtension xmlns:gpxx="http://www.garmin.com/xmlschemas/GpxExtensions/v3">
        <gpxx:DisplayColor>Green</gpxx:DisplayColor>
      </gpxx:TrackExtension>
    </extensions>
    <trkseg>
      <trkpt lat="54.308200450614095" lon="16.19715565815568">
        <ele>-34.4700927734375</ele>
        <time>2015-07-01T06:33:34Z</time>
      </trkpt>
      <trkpt lat="54.308219561353326" lon="16.197242494672537">
        <ele>-34.4700927734375</ele>
        <time>2015-07-01T06:33:49Z</time>
      </trkpt>
      <trkpt lat="54.308090563863516" lon="16.197341904044151">
        <ele>-34.4700927734375</ele>
        <time>2015-07-01T06:34:08Z</time>
      </trkpt>
      <trkpt lat="54.308007247745991" lon="16.197329582646489">
        <ele>-26.2989501953125</ele>
        <time>2015-07-01T06:34:38Z</time>
      </trkpt>
      <trkpt lat="54.307936672121286" lon="16.197247188538313">
        <ele>-25.337646484375</ele>
        <time>2015-07-01T06:34:45Z</time>
      </trkpt>
      <trkpt lat="54.307616567239165" lon="16.196594070643187">
        <ele>-23.8956298828125</ele>
        <time>2015-07-01T06:34:58Z</time>
      </trkpt>
      <trkpt lat="54.307383131235838" lon="16.196107836440206">
        <ele>-21.4923095703125</ele>
        <time>2015-07-01T06:35:08Z</time>
      </trkpt>
      <trkpt lat="54.30658140219748" lon="16.196741005405784">
        <ele>-14.282470703125</ele>
        <time>2015-07-01T06:35:33Z</time>
      </trkpt>
      <trkpt lat="54.30520249530673" lon="16.198327364400029">
        <ele>-8.5146484375</ele>
        <time>2015-07-01T06:36:09Z</time>
      </trkpt>
      <trkpt lat="54.303729794919491" lon="16.200049677863717">
        <ele>-7.5531005859375</ele>
        <time>2015-07-01T06:36:44Z</time>
      </trkpt>
      <trkpt lat="54.301171973347664" lon="16.202402561903">
        <ele>-3.227294921875</ele>
        <time>2015-07-01T06:37:50Z</time>
      </trkpt>
      <trkpt lat="54.299337258562446" lon="16.204861644655466">
        <ele>-2.2659912109375</ele>
        <time>2015-07-01T06:38:44Z</time>
      </trkpt>
      <trkpt lat="54.298461601138115" lon="16.205983478575945">
        <ele>-2.7467041015625</ele>
        <time>2015-07-01T06:39:00Z</time>
      </trkpt>
      <trkpt lat="54.296483136713505" lon="16.20834868401289">
        <ele>-2.7467041015625</ele>
        <time>2015-07-01T06:39:38Z</time>
      </trkpt>
      <trkpt lat="54.294658647850156" lon="16.210449859499931">
        <ele>-1.7852783203125</ele>
        <time>2015-07-01T06:40:14Z</time>
      </trkpt>
      <trkpt lat="54.293575622141361" lon="16.21062034741044">
        <ele>-0.8240966796875</ele>
        <time>2015-07-01T06:40:33Z</time>
      </trkpt>
      <trkpt lat="54.28810534067452" lon="16.210249699652195">
        <ele>-3.7078857421875</ele>
        <time>2015-07-01T06:42:19Z</time>
      </trkpt>
      <trkpt lat="54.286489309743047" lon="16.209401451051235">
        <ele>-3.7078857421875</ele>
        <time>2015-07-01T06:42:51Z</time>
      </trkpt>
      <trkpt lat="54.284740425646305" lon="16.208948828279972">
        <ele>-0.8240966796875</ele>
        <time>2015-07-01T06:43:26Z</time>
      </trkpt>
      <trkpt lat="54.283795952796936" lon="16.209178240969777">
        <ele>-2.2659912109375</ele>
        <time>2015-07-01T06:43:49Z</time>
      </trkpt>
      <trkpt lat="54.283870635554194" lon="16.209446545690298">
        <ele>-1.3046875</ele>
        <time>2015-07-01T06:44:42Z</time>
      </trkpt>
      <trkpt lat="54.283794276416302" lon="16.209575207903981">
        <ele>-1.7852783203125</ele>
        <time>2015-07-01T06:44:50Z</time>
      </trkpt>
      <trkpt lat="54.28363929502666" lon="16.20977888815105">
        <ele>-1.7852783203125</ele>
        <time>2015-07-01T06:45:01Z</time>
      </trkpt>
      <trkpt lat="54.283621441572905" lon="16.210055910050869">
        <ele>-2.2659912109375</ele>
        <time>2015-07-01T06:45:05Z</time>
      </trkpt>
      <trkpt lat="54.283928051590919" lon="16.211599353700876">
        <ele>-2.2659912109375</ele>
        <time>2015-07-01T06:45:26Z</time>
      </trkpt>
      <trkpt lat="54.284422751516104" lon="16.213732296600938">
        <ele>-2.7467041015625</ele>
        <time>2015-07-01T06:45:56Z</time>
      </trkpt>
      <trkpt lat="54.285340989008546" lon="16.216874001547694">
        <ele>-2.2659912109375</ele>
        <time>2015-07-01T06:46:37Z</time>
      </trkpt>
      <trkpt lat="54.285141499713063" lon="16.217092350125313">
        <ele>-2.2659912109375</ele>
        <time>2015-07-01T06:46:42Z</time>
      </trkpt>
      <trkpt lat="54.28322346881032" lon="16.217645974829793">
        <ele>1.579345703125</ele>
        <time>2015-07-01T06:47:26Z</time>
      </trkpt>
      <trkpt lat="54.282835554331541" lon="16.217915704473853">
        <ele>2.06005859375</ele>
        <time>2015-07-01T06:47:38Z</time>
      </trkpt>
      <trkpt lat="54.282787442207336" lon="16.219143150374293">
        <ele>1.0986328125</ele>
        <time>2015-07-01T06:47:57Z</time>
      </trkpt>
      <trkpt lat="54.282443281263113" lon="16.229431098327041">
        <ele>6.3858642578125</ele>
        <time>2015-07-01T06:50:26Z</time>
      </trkpt>
      <trkpt lat="54.282755339518189" lon="16.237763715907931">
        <ele>10.7117919921875</ele>
        <time>2015-07-01T06:52:27Z</time>
      </trkpt>
      <trkpt lat="54.283389430493116" lon="16.244021309539676">
        <ele>11.1925048828125</ele>
        <time>2015-07-01T06:53:59Z</time>
      </trkpt>
      <trkpt lat="54.285463951528072" lon="16.250246968120337">
        <ele>11.1925048828125</ele>
        <time>2015-07-01T06:55:33Z</time>
      </trkpt>
      <trkpt lat="54.28714812733233" lon="16.255874577909708">
        <ele>8.7891845703125</ele>
        <time>2015-07-01T06:57:02Z</time>
      </trkpt>
      <trkpt lat="54.28723119199276" lon="16.257064891979098">
        <ele>9.2698974609375</ele>
        <time>2015-07-01T06:57:21Z</time>
      </trkpt>
      <trkpt lat="54.287400003522635" lon="16.259329011663795">
        <ele>10.231201171875</ele>
        <time>2015-07-01T06:57:50Z</time>
      </trkpt>
      <trkpt lat="54.287440404295921" lon="16.259854892268777">
        <ele>9.2698974609375</ele>
        <time>2015-07-01T06:58:00Z</time>
      </trkpt>
      <trkpt lat="54.287984641268849" lon="16.262164860963821">
        <ele>10.7117919921875</ele>
        <time>2015-07-01T06:59:03Z</time>
      </trkpt>
      <trkpt lat="54.291902845725417" lon="16.27268741838634">
        <ele>5.424560546875</ele>
        <time>2015-07-01T07:01:25Z</time>
      </trkpt>
      <trkpt lat="54.291937043890357" lon="16.272889589890838">
        <ele>5.424560546875</ele>
        <time>2015-07-01T07:01:28Z</time>
      </trkpt>
      <trkpt lat="54.292101915925741" lon="16.273138783872128">
        <ele>5.424560546875</ele>
        <time>2015-07-01T07:01:33Z</time>
      </trkpt>
      <trkpt lat="54.293504795059562" lon="16.274437895044684">
        <ele>5.424560546875</ele>
        <time>2015-07-01T07:02:07Z</time>
      </trkpt>
      <trkpt lat="54.294305266812444" lon="16.274190628901124">
        <ele>5.9052734375</ele>
        <time>2015-07-01T07:02:26Z</time>
      </trkpt>
      <trkpt lat="54.295036923140287" lon="16.27472011372447">
        <ele>5.9052734375</ele>
        <time>2015-07-01T07:02:45Z</time>
      </trkpt>
      <trkpt lat="54.295338504016399" lon="16.275064526125789">
        <ele>5.9052734375</ele>
        <time>2015-07-01T07:02:56Z</time>
      </trkpt>
      <trkpt lat="54.29542064666748" lon="16.275091096758842">
        <ele>5.424560546875</ele>
        <time>2015-07-01T07:03:08Z</time>
      </trkpt>
      <trkpt lat="54.295383514836431" lon="16.27508657053113">
        <ele>5.9052734375</ele>
        <time>2015-07-01T07:03:56Z</time>
      </trkpt>
      <trkpt lat="54.295318135991693" lon="16.275331657379866">
        <ele>7.827880859375</ele>
        <time>2015-07-01T07:05:44Z</time>
      </trkpt>
      <trkpt lat="54.295507734641433" lon="16.275847144424915">
        <ele>6.866455078125</ele>
        <time>2015-07-01T07:05:57Z</time>
      </trkpt>
      <trkpt lat="54.295611586421728" lon="16.276027355343103">
        <ele>6.866455078125</ele>
        <time>2015-07-01T07:06:01Z</time>
      </trkpt>
      <trkpt lat="54.295747624710202" lon="16.276911562308669">
        <ele>8.30859375</ele>
        <time>2015-07-01T07:06:15Z</time>
      </trkpt>
      <trkpt lat="54.295243537053466" lon="16.27953602001071">
        <ele>10.7117919921875</ele>
        <time>2015-07-01T07:07:02Z</time>
      </trkpt>
      <trkpt lat="54.295399188995361" lon="16.280794478952885">
        <ele>13.1151123046875</ele>
        <time>2015-07-01T07:07:34Z</time>
      </trkpt>
      <trkpt lat="54.295539166778326" lon="16.280751060694456">
        <ele>18.40234375</ele>
        <time>2015-07-01T07:10:32Z</time>
      </trkpt>
      <trkpt lat="54.295372199267149" lon="16.27880210056901">
        <ele>14.076416015625</ele>
        <time>2015-07-01T07:11:07Z</time>
      </trkpt>
      <trkpt lat="54.295850722119212" lon="16.276512164622545">
        <ele>12.6343994140625</ele>
        <time>2015-07-01T07:11:44Z</time>
      </trkpt>
      <trkpt lat="54.296267135068774" lon="16.276969816535711">
        <ele>14.076416015625</ele>
        <time>2015-07-01T07:12:27Z</time>
      </trkpt>
      <trkpt lat="54.296317510306835" lon="16.276856157928705">
        <ele>33.3028564453125</ele>
        <time>2015-07-01T07:14:26Z</time>
      </trkpt>
      <trkpt lat="54.296590927988291" lon="16.276798322796822">
        <ele>27.0543212890625</ele>
        <time>2015-07-01T07:14:47Z</time>
      </trkpt>
      <trkpt lat="54.297429453581572" lon="16.277188500389457">
        <ele>21.7669677734375</ele>
        <time>2015-07-01T07:15:14Z</time>
      </trkpt>
      <trkpt lat="54.300424307584763" lon="16.280605215579271">
        <ele>18.883056640625</ele>
        <time>2015-07-01T07:16:44Z</time>
      </trkpt>
      <trkpt lat="54.300607703626156" lon="16.280801268294454">
        <ele>16.96044921875</ele>
        <time>2015-07-01T07:16:55Z</time>
      </trkpt>
      <trkpt lat="54.300722200423479" lon="16.28098382614553">
        <ele>15.5184326171875</ele>
        <time>2015-07-01T07:18:05Z</time>
      </trkpt>
      <trkpt lat="54.301343886181712" lon="16.281556896865368">
        <ele>13.1151123046875</ele>
        <time>2015-07-01T07:18:27Z</time>
      </trkpt>
      <trkpt lat="54.30491273291409" lon="16.284600282087922">
        <ele>10.7117919921875</ele>
        <time>2015-07-01T07:20:03Z</time>
      </trkpt>
      <trkpt lat="54.306202540174127" lon="16.285690097138286">
        <ele>10.231201171875</ele>
        <time>2015-07-01T07:20:45Z</time>
      </trkpt>
      <trkpt lat="54.306462882086635" lon="16.285889754071832">
        <ele>10.231201171875</ele>
        <time>2015-07-01T07:21:03Z</time>
      </trkpt>
      <trkpt lat="54.307408109307289" lon="16.286756526678801">
        <ele>8.7891845703125</ele>
        <time>2015-07-01T07:21:32Z</time>
      </trkpt>
      <trkpt lat="54.308085618540645" lon="16.287385504692793">
        <ele>7.34716796875</ele>
        <time>2015-07-01T07:21:56Z</time>
      </trkpt>
      <trkpt lat="54.30842156521976" lon="16.287919767200947">
        <ele>7.34716796875</ele>
        <time>2015-07-01T07:22:12Z</time>
      </trkpt>
      <trkpt lat="54.308933950960636" lon="16.288739182054996">
        <ele>8.30859375</ele>
        <time>2015-07-01T07:22:34Z</time>
      </trkpt>
      <trkpt lat="54.309219606220722" lon="16.289197001606226">
        <ele>8.30859375</ele>
        <time>2015-07-01T07:22:50Z</time>
      </trkpt>
      <trkpt lat="54.310000883415341" lon="16.290541291236877">
        <ele>8.30859375</ele>
        <time>2015-07-01T07:23:21Z</time>
      </trkpt>
      <trkpt lat="54.31222653016448" lon="16.295757098123431">
        <ele>9.2698974609375</ele>
        <time>2015-07-01T07:24:38Z</time>
      </trkpt>
      <trkpt lat="54.314981242641807" lon="16.299165599048138">
        <ele>5.424560546875</ele>
        <time>2015-07-01T07:25:50Z</time>
      </trkpt>
      <trkpt lat="54.316211203113198" lon="16.302223652601242">
        <ele>5.9052734375</ele>
        <time>2015-07-01T07:26:40Z</time>
      </trkpt>
      <trkpt lat="54.316153367981315" lon="16.302329767495394">
        <ele>5.9052734375</ele>
        <time>2015-07-01T07:26:44Z</time>
      </trkpt>
      <trkpt lat="54.316007690504193" lon="16.302501680329442">
        <ele>6.3858642578125</ele>
        <time>2015-07-01T07:26:56Z</time>
      </trkpt>
      <trkpt lat="54.315621368587017" lon="16.302970899268985">
        <ele>5.9052734375</ele>
        <time>2015-07-01T07:27:09Z</time>
      </trkpt>
      <trkpt lat="54.315562946721911" lon="16.303172232583165">
        <ele>6.3858642578125</ele>
        <time>2015-07-01T07:27:14Z</time>
      </trkpt>
      <trkpt lat="54.314956683665514" lon="16.303948732092977">
        <ele>7.34716796875</ele>
        <time>2015-07-01T07:27:32Z</time>
      </trkpt>
      <trkpt lat="54.314377075061202" lon="16.304756831377745">
        <ele>6.866455078125</ele>
        <time>2015-07-01T07:27:56Z</time>
      </trkpt>
      <trkpt lat="54.314284371212125" lon="16.304874513298273">
        <ele>7.34716796875</ele>
        <time>2015-07-01T07:28:02Z</time>
      </trkpt>
      <trkpt lat="54.314219914376736" lon="16.305177435278893">
        <ele>5.9052734375</ele>
        <time>2015-07-01T07:28:13Z</time>
      </trkpt>
      <trkpt lat="54.314246485009789" lon="16.305389916524291">
        <ele>6.866455078125</ele>
        <time>2015-07-01T07:28:19Z</time>
      </trkpt>
      <trkpt lat="54.314665580168366" lon="16.306047812104225">
        <ele>5.9052734375</ele>
        <time>2015-07-01T07:28:32Z</time>
      </trkpt>
      <trkpt lat="54.315040586516261" lon="16.306699505075812">
        <ele>3.982666015625</ele>
        <time>2015-07-01T07:28:44Z</time>
      </trkpt>
      <trkpt lat="54.315690603107214" lon="16.307904990389943">
        <ele>3.501953125</ele>
        <time>2015-07-01T07:29:02Z</time>
      </trkpt>
      <trkpt lat="54.316100310534239" lon="16.309243831783533">
        <ele>3.982666015625</ele>
        <time>2015-07-01T07:29:20Z</time>
      </trkpt>
      <trkpt lat="54.316432988271117" lon="16.312066102400422">
        <ele>4.94384765625</ele>
        <time>2015-07-01T07:29:57Z</time>
      </trkpt>
      <trkpt lat="54.316604565829039" lon="16.313007054850459">
        <ele>5.9052734375</ele>
        <time>2015-07-01T07:30:13Z</time>
      </trkpt>
      <trkpt lat="54.316700538620353" lon="16.313246861100197">
        <ele>4.4632568359375</ele>
        <time>2015-07-01T07:31:20Z</time>
      </trkpt>
      <trkpt lat="54.31789118796587" lon="16.320847906172276">
        <ele>5.424560546875</ele>
        <time>2015-07-01T07:33:08Z</time>
      </trkpt>
      <trkpt lat="54.319484755396843" lon="16.326998798176646">
        <ele>4.94384765625</ele>
        <time>2015-07-01T07:34:41Z</time>
      </trkpt>
      <trkpt lat="54.319863449782133" lon="16.329216817393899">
        <ele>4.4632568359375</ele>
        <time>2015-07-01T07:35:08Z</time>
      </trkpt>
      <trkpt lat="54.320358401164412" lon="16.332144197076559">
        <ele>3.501953125</ele>
        <time>2015-07-01T07:35:45Z</time>
      </trkpt>
      <trkpt lat="54.320912109687924" lon="16.335215996950865">
        <ele>3.982666015625</ele>
        <time>2015-07-01T07:36:26Z</time>
      </trkpt>
      <trkpt lat="54.321574196219444" lon="16.339081898331642">
        <ele>8.7891845703125</ele>
        <time>2015-07-01T07:37:16Z</time>
      </trkpt>
      <trkpt lat="54.322567451745272" lon="16.34794014506042">
        <ele>6.866455078125</ele>
        <time>2015-07-01T07:39:08Z</time>
      </trkpt>
      <trkpt lat="54.323062906041741" lon="16.34893842972815">
        <ele>5.424560546875</ele>
        <time>2015-07-01T07:39:20Z</time>
      </trkpt>
      <trkpt lat="54.323930097743869" lon="16.350691672414541">
        <ele>4.4632568359375</ele>
        <time>2015-07-01T07:39:45Z</time>
      </trkpt>
      <trkpt lat="54.325489215552807" lon="16.354411477223039">
        <ele>4.4632568359375</ele>
        <time>2015-07-01T07:40:38Z</time>
      </trkpt>
      <trkpt lat="54.326208382844925" lon="16.358047379180789">
        <ele>6.866455078125</ele>
        <time>2015-07-01T07:41:26Z</time>
      </trkpt>
      <trkpt lat="54.326135208830237" lon="16.370181022211909">
        <ele>7.827880859375</ele>
        <time>2015-07-01T07:44:18Z</time>
      </trkpt>
      <trkpt lat="54.326190780848265" lon="16.371913980692625">
        <ele>8.30859375</ele>
        <time>2015-07-01T07:44:47Z</time>
      </trkpt>
      <trkpt lat="54.326333105564117" lon="16.372007858008146">
        <ele>9.7506103515625</ele>
        <time>2015-07-01T07:44:52Z</time>
      </trkpt>
      <trkpt lat="54.330665543675423" lon="16.370014054700732">
        <ele>11.1925048828125</ele>
        <time>2015-07-01T07:46:45Z</time>
      </trkpt>
      <trkpt lat="54.331449838355184" lon="16.369351213797927">
        <ele>14.076416015625</ele>
        <time>2015-07-01T07:47:16Z</time>
      </trkpt>
      <trkpt lat="54.332028357312083" lon="16.368949133902788">
        <ele>15.5184326171875</ele>
        <time>2015-07-01T07:47:32Z</time>
      </trkpt>
      <trkpt lat="54.332754565402865" lon="16.368800355121493">
        <ele>13.5958251953125</ele>
        <time>2015-07-01T07:47:50Z</time>
      </trkpt>
      <trkpt lat="54.333016080781817" lon="16.368790715932846">
        <ele>13.5958251953125</ele>
        <time>2015-07-01T07:47:56Z</time>
      </trkpt>
      <trkpt lat="54.333925601094961" lon="16.368912504985929">
        <ele>12.6343994140625</ele>
        <time>2015-07-01T07:48:17Z</time>
      </trkpt>
      <trkpt lat="54.33566895313561" lon="16.368545545265079">
        <ele>14.5570068359375</ele>
        <time>2015-07-01T07:48:56Z</time>
      </trkpt>
      <trkpt lat="54.336248645558953" lon="16.367502585053444">
        <ele>16.96044921875</ele>
        <time>2015-07-01T07:49:14Z</time>
      </trkpt>
      <trkpt lat="54.338242029771209" lon="16.366315456107259">
        <ele>17.9217529296875</ele>
        <time>2015-07-01T07:50:15Z</time>
      </trkpt>
      <trkpt lat="54.338569259271026" lon="16.36590993963182">
        <ele>17.9217529296875</ele>
        <time>2015-07-01T07:50:26Z</time>
      </trkpt>
      <trkpt lat="54.339356236159801" lon="16.366122923791409">
        <ele>17.9217529296875</ele>
        <time>2015-07-01T07:50:45Z</time>
      </trkpt>
      <trkpt lat="54.339555641636252" lon="16.366189140826464">
        <ele>17.9217529296875</ele>
        <time>2015-07-01T07:50:50Z</time>
      </trkpt>
      <trkpt lat="54.339802488684654" lon="16.366236498579383">
        <ele>17.441162109375</ele>
        <time>2015-07-01T07:50:56Z</time>
      </trkpt>
      <trkpt lat="54.340009354054928" lon="16.366232307627797">
        <ele>16.96044921875</ele>
        <time>2015-07-01T07:51:01Z</time>
      </trkpt>
      <trkpt lat="54.340169867500663" lon="16.366073554381728">
        <ele>17.9217529296875</ele>
        <time>2015-07-01T07:51:05Z</time>
      </trkpt>
      <trkpt lat="54.341007387265563" lon="16.36449926532805">
        <ele>20.324951171875</ele>
        <time>2015-07-01T07:51:31Z</time>
      </trkpt>
      <trkpt lat="54.341792017221451" lon="16.363757215440273">
        <ele>19.8443603515625</ele>
        <time>2015-07-01T07:51:54Z</time>
      </trkpt>
      <trkpt lat="54.342414122074842" lon="16.363709857687354">
        <ele>18.883056640625</ele>
        <time>2015-07-01T07:52:13Z</time>
      </trkpt>
      <trkpt lat="54.34496222063899" lon="16.359509266912937">
        <ele>15.5184326171875</ele>
        <time>2015-07-01T07:54:16Z</time>
      </trkpt>
      <trkpt lat="54.345018798485398" lon="16.359397452324629">
        <ele>15.9990234375</ele>
        <time>2015-07-01T07:54:18Z</time>
      </trkpt>
      <trkpt lat="54.345740899443626" lon="16.35696804150939">
        <ele>13.1151123046875</ele>
        <time>2015-07-01T07:54:51Z</time>
      </trkpt>
      <trkpt lat="54.350539203733206" lon="16.343074114993215">
        <ele>5.9052734375</ele>
        <time>2015-07-01T07:59:40Z</time>
      </trkpt>
      <trkpt lat="54.351057289168239" lon="16.342527447268367">
        <ele>-0.3433837890625</ele>
        <time>2015-07-01T08:00:01Z</time>
      </trkpt>
      <trkpt lat="54.354055998846889" lon="16.33867034688592">
        <ele>5.424560546875</ele>
        <time>2015-07-01T08:02:06Z</time>
      </trkpt>
      <trkpt lat="54.35439077205956" lon="16.338428780436516">
        <ele>8.30859375</ele>
        <time>2015-07-01T08:02:19Z</time>
      </trkpt>
      <trkpt lat="54.354466209188104" lon="16.338360719382763">
        <ele>7.827880859375</ele>
        <time>2015-07-01T08:02:32Z</time>
      </trkpt>
      <trkpt lat="54.354487331584096" lon="16.338258627802134">
        <ele>3.501953125</ele>
        <time>2015-07-01T08:07:19Z</time>
      </trkpt>
      <trkpt lat="54.354416420683265" lon="16.337941456586123">
        <ele>3.982666015625</ele>
        <time>2015-07-01T08:07:32Z</time>
      </trkpt>
      <trkpt lat="54.353782581165433" lon="16.334942914545536">
        <ele>5.424560546875</ele>
        <time>2015-07-01T08:09:17Z</time>
      </trkpt>
      <trkpt lat="54.353880817070603" lon="16.33494408801198">
        <ele>7.34716796875</ele>
        <time>2015-07-01T08:09:41Z</time>
      </trkpt>
      <trkpt lat="54.353898419067264" lon="16.33494065143168">
        <ele>10.231201171875</ele>
        <time>2015-07-01T08:09:55Z</time>
      </trkpt>
    </trkseg>
  </trk>

  <trk>
    <name>ACTIVE LOG 009</name>
    <extensions>
      <gpxx:TrackExtension xmlns:gpxx="http://www.garmin.com/xmlschemas/GpxExtensions/v3">
        <gpxx:DisplayColor>Green</gpxx:DisplayColor>
      </gpxx:TrackExtension>
    </extensions>
    <trkseg>
      <trkpt lat="54.353766068816185" lon="16.335052968934178">
        <ele>-27.26025390625</ele>
        <time>2015-07-01T08:11:47Z</time>
      </trkpt>
      <trkpt lat="54.353928510099649" lon="16.334884660318494">
        <ele>-13.8017578125</ele>
        <time>2015-07-01T08:12:08Z</time>
      </trkpt>
      <trkpt lat="54.354317178949714" lon="16.334747197106481">
        <ele>-6.5919189453125</ele>
        <time>2015-07-01T08:12:21Z</time>
      </trkpt>
      <trkpt lat="54.355178670957685" lon="16.334566483274102">
        <ele>-2.2659912109375</ele>
        <time>2015-07-01T08:12:39Z</time>
      </trkpt>
      <trkpt lat="54.355965480208397" lon="16.334851467981935">
        <ele>-0.8240966796875</ele>
        <time>2015-07-01T08:12:52Z</time>
      </trkpt>
      <trkpt lat="54.356013843789697" lon="16.334879966452718">
        <ele>-0.3433837890625</ele>
        <time>2015-07-01T08:12:53Z</time>
      </trkpt>
      <trkpt lat="54.356373595073819" lon="16.335050873458385">
        <ele>0.137451171875</ele>
        <time>2015-07-01T08:13:02Z</time>
      </trkpt>
      <trkpt lat="54.356523379683495" lon="16.335036121308804">
        <ele>-0.8240966796875</ele>
        <time>2015-07-01T08:13:07Z</time>
      </trkpt>
      <trkpt lat="54.357861299067736" lon="16.334111513569951">
        <ele>-0.8240966796875</ele>
        <time>2015-07-01T08:13:38Z</time>
      </trkpt>
      <trkpt lat="54.357955008745193" lon="16.33409827016294">
        <ele>-0.8240966796875</ele>
        <time>2015-07-01T08:13:40Z</time>
      </trkpt>
      <trkpt lat="54.359992817044258" lon="16.333677414804697">
        <ele>-1.3046875</ele>
        <time>2015-07-01T08:14:20Z</time>
      </trkpt>
      <trkpt lat="54.365683542564511" lon="16.330013936385512">
        <ele>-1.7852783203125</ele>
        <time>2015-07-01T08:16:21Z</time>
      </trkpt>
      <trkpt lat="54.366869665682316" lon="16.328810462728143">
        <ele>-4.1885986328125</ele>
        <time>2015-07-01T08:16:50Z</time>
      </trkpt>
      <trkpt lat="54.370187222957611" lon="16.325189061462879">
        <ele>-3.227294921875</ele>
        <time>2015-07-01T08:18:10Z</time>
      </trkpt>
      <trkpt lat="54.370181355625391" lon="16.325044222176075">
        <ele>-2.2659912109375</ele>
        <time>2015-07-01T08:18:14Z</time>
      </trkpt>
      <trkpt lat="54.370167860761285" lon="16.324977837502956">
        <ele>-1.7852783203125</ele>
        <time>2015-07-01T08:18:16Z</time>
      </trkpt>
      <trkpt lat="54.370224354788661" lon="16.324866525828838">
        <ele>0.137451171875</ele>
        <time>2015-07-01T08:18:20Z</time>
      </trkpt>
      <trkpt lat="54.371644668281078" lon="16.323735136538744">
        <ele>1.579345703125</ele>
        <time>2015-07-01T08:19:03Z</time>
      </trkpt>
      <trkpt lat="54.372982922941446" lon="16.322435438632965">
        <ele>2.5406494140625</ele>
        <time>2015-07-01T08:19:38Z</time>
      </trkpt>
      <trkpt lat="54.373105466365814" lon="16.322412975132465">
        <ele>3.501953125</ele>
        <time>2015-07-01T08:19:45Z</time>
      </trkpt>
      <trkpt lat="54.373652217909694" lon="16.321721468120813">
        <ele>3.501953125</ele>
        <time>2015-07-01T08:20:03Z</time>
      </trkpt>
      <trkpt lat="54.374954430386424" lon="16.319983145222068">
        <ele>2.5406494140625</ele>
        <time>2015-07-01T08:20:39Z</time>
      </trkpt>
      <trkpt lat="54.375995127484202" lon="16.318341298028827">
        <ele>3.021240234375</ele>
        <time>2015-07-01T08:21:09Z</time>
      </trkpt>
      <trkpt lat="54.376154551282525" lon="16.318162512034178">
        <ele>3.021240234375</ele>
        <time>2015-07-01T08:21:13Z</time>
      </trkpt>
      <trkpt lat="54.376466106623411" lon="16.31794810295105">
        <ele>2.5406494140625</ele>
        <time>2015-07-01T08:21:20Z</time>
      </trkpt>
      <trkpt lat="54.377589281648397" lon="16.317526325583458">
        <ele>4.4632568359375</ele>
        <time>2015-07-01T08:21:44Z</time>
      </trkpt>
      <trkpt lat="54.378081215545535" lon="16.317506628111005">
        <ele>3.982666015625</ele>
        <time>2015-07-01T08:21:55Z</time>
      </trkpt>
      <trkpt lat="54.378510536625981" lon="16.31795397028327">
        <ele>3.982666015625</ele>
        <time>2015-07-01T08:22:06Z</time>
      </trkpt>
      <trkpt lat="54.379488034173846" lon="16.319048814475536">
        <ele>3.021240234375</ele>
        <time>2015-07-01T08:22:31Z</time>
      </trkpt>
      <trkpt lat="54.379987511783838" lon="16.319582657888532">
        <ele>2.5406494140625</ele>
        <time>2015-07-01T08:22:44Z</time>
      </trkpt>
      <trkpt lat="54.380860906094313" lon="16.319877281785011">
        <ele>2.06005859375</ele>
        <time>2015-07-01T08:23:03Z</time>
      </trkpt>
      <trkpt lat="54.3813899718225" lon="16.319965207949281">
        <ele>3.021240234375</ele>
        <time>2015-07-01T08:23:14Z</time>
      </trkpt>
      <trkpt lat="54.382424969226122" lon="16.319465562701225">
        <ele>3.021240234375</ele>
        <time>2015-07-01T08:23:37Z</time>
      </trkpt>
      <trkpt lat="54.382591769099236" lon="16.319487523287535">
        <ele>2.06005859375</ele>
        <time>2015-07-01T08:23:41Z</time>
      </trkpt>
      <trkpt lat="54.38274197280407" lon="16.319665051996708">
        <ele>1.579345703125</ele>
        <time>2015-07-01T08:23:45Z</time>
      </trkpt>
      <trkpt lat="54.384878436103463" lon="16.324558826163411">
        <ele>1.0986328125</ele>
        <time>2015-07-01T08:25:07Z</time>
      </trkpt>
      <trkpt lat="54.386646933853626" lon="16.328363623470068">
        <ele>2.06005859375</ele>
        <time>2015-07-01T08:26:13Z</time>
      </trkpt>
      <trkpt lat="54.387112213298678" lon="16.329611018300056">
        <ele>2.06005859375</ele>
        <time>2015-07-01T08:26:32Z</time>
      </trkpt>
      <trkpt lat="54.390219049528241" lon="16.336353002116084">
        <ele>2.06005859375</ele>
        <time>2015-07-01T08:28:26Z</time>
      </trkpt>
      <trkpt lat="54.390950202941895" lon="16.337753785774112">
        <ele>1.0986328125</ele>
        <time>2015-07-01T08:28:51Z</time>
      </trkpt>
      <trkpt lat="54.39267192967236" lon="16.341894948855042">
        <ele>2.06005859375</ele>
        <time>2015-07-01T08:29:58Z</time>
      </trkpt>
      <trkpt lat="54.393105022609234" lon="16.343563450500369">
        <ele>3.021240234375</ele>
        <time>2015-07-01T08:30:21Z</time>
      </trkpt>
      <trkpt lat="54.393320186063647" lon="16.344341123476624">
        <ele>1.579345703125</ele>
        <time>2015-07-01T08:30:32Z</time>
      </trkpt>
      <trkpt lat="54.393468964844942" lon="16.345346616581082">
        <ele>1.579345703125</ele>
        <time>2015-07-01T08:30:44Z</time>
      </trkpt>
      <trkpt lat="54.393860651180148" lon="16.346828704699874">
        <ele>1.0986328125</ele>
        <time>2015-07-01T08:31:02Z</time>
      </trkpt>
      <trkpt lat="54.394003059715033" lon="16.347045879811049">
        <ele>1.0986328125</ele>
        <time>2015-07-01T08:31:06Z</time>
      </trkpt>
      <trkpt lat="54.394222414121032" lon="16.347217625007033">
        <ele>1.0986328125</ele>
        <time>2015-07-01T08:31:11Z</time>
      </trkpt>
      <trkpt lat="54.394633295014501" lon="16.3473816588521">
        <ele>1.0986328125</ele>
        <time>2015-07-01T08:31:20Z</time>
      </trkpt>
      <trkpt lat="54.394741002470255" lon="16.347737889736891">
        <ele>0.6180419921875</ele>
        <time>2015-07-01T08:31:26Z</time>
      </trkpt>
      <trkpt lat="54.394746953621507" lon="16.347872503101826">
        <ele>0.6180419921875</ele>
        <time>2015-07-01T08:31:28Z</time>
      </trkpt>
      <trkpt lat="54.394414527341723" lon="16.351334061473608">
        <ele>-2.2659912109375</ele>
        <time>2015-07-01T08:32:20Z</time>
      </trkpt>
      <trkpt lat="54.393880600109696" lon="16.356527991592884">
        <ele>-0.8240966796875</ele>
        <time>2015-07-01T08:33:33Z</time>
      </trkpt>
      <trkpt lat="54.393943212926388" lon="16.357267694547772">
        <ele>-0.3433837890625</ele>
        <time>2015-07-01T08:33:43Z</time>
      </trkpt>
      <trkpt lat="54.394303131848574" lon="16.358148213475943">
        <ele>1.0986328125</ele>
        <time>2015-07-01T08:33:57Z</time>
      </trkpt>
      <trkpt lat="54.395280629396439" lon="16.360323987901211">
        <ele>2.06005859375</ele>
        <time>2015-07-01T08:34:32Z</time>
      </trkpt>
      <trkpt lat="54.395483555272222" lon="16.360660437494516">
        <ele>1.579345703125</ele>
        <time>2015-07-01T08:34:38Z</time>
      </trkpt>
      <trkpt lat="54.395704753696918" lon="16.360956653952599">
        <ele>1.0986328125</ele>
        <time>2015-07-01T08:34:44Z</time>
      </trkpt>
      <trkpt lat="54.399602338671684" lon="16.363340299576521">
        <ele>1.579345703125</ele>
        <time>2015-07-01T08:36:20Z</time>
      </trkpt>
      <trkpt lat="54.400398870930076" lon="16.364402957260609">
        <ele>2.06005859375</ele>
        <time>2015-07-01T08:36:45Z</time>
      </trkpt>
      <trkpt lat="54.401285424828529" lon="16.36559721082449">
        <ele>3.501953125</ele>
        <time>2015-07-01T08:37:15Z</time>
      </trkpt>
      <trkpt lat="54.401713404804468" lon="16.366109009832144">
        <ele>3.501953125</ele>
        <time>2015-07-01T08:37:34Z</time>
      </trkpt>
      <trkpt lat="54.401943320408463" lon="16.366409501060843">
        <ele>3.501953125</ele>
        <time>2015-07-01T08:37:45Z</time>
      </trkpt>
      <trkpt lat="54.40320773050189" lon="16.368014551699162">
        <ele>2.5406494140625</ele>
        <time>2015-07-01T08:38:21Z</time>
      </trkpt>
      <trkpt lat="54.403386013582349" lon="16.368273803964257">
        <ele>2.06005859375</ele>
        <time>2015-07-01T08:38:26Z</time>
      </trkpt>
      <trkpt lat="54.403839809820056" lon="16.370826177299023">
        <ele>2.5406494140625</ele>
        <time>2015-07-01T08:39:07Z</time>
      </trkpt>
      <trkpt lat="54.403762947767973" lon="16.371541991829872">
        <ele>3.021240234375</ele>
        <time>2015-07-01T08:39:16Z</time>
      </trkpt>
      <trkpt lat="54.403763953596354" lon="16.371700745075941">
        <ele>3.021240234375</ele>
        <time>2015-07-01T08:39:18Z</time>
      </trkpt>
      <trkpt lat="54.403907619416714" lon="16.372751081362367">
        <ele>3.021240234375</ele>
        <time>2015-07-01T08:39:32Z</time>
      </trkpt>
      <trkpt lat="54.404512457549572" lon="16.376089509576559">
        <ele>2.5406494140625</ele>
        <time>2015-07-01T08:40:19Z</time>
      </trkpt>
      <trkpt lat="54.404446994885802" lon="16.376667190343142">
        <ele>3.501953125</ele>
        <time>2015-07-01T08:40:27Z</time>
      </trkpt>
      <trkpt lat="54.403977608308196" lon="16.378187835216522">
        <ele>3.982666015625</ele>
        <time>2015-07-01T08:40:49Z</time>
      </trkpt>
      <trkpt lat="54.403512999415398" lon="16.379765812307596">
        <ele>3.501953125</ele>
        <time>2015-07-01T08:41:07Z</time>
      </trkpt>
      <trkpt lat="54.403492044657469" lon="16.38011391274631">
        <ele>3.501953125</ele>
        <time>2015-07-01T08:41:11Z</time>
      </trkpt>
      <trkpt lat="54.40372372046113" lon="16.382753876969218">
        <ele>3.501953125</ele>
        <time>2015-07-01T08:41:44Z</time>
      </trkpt>
      <trkpt lat="54.403793793171644" lon="16.383182443678379">
        <ele>3.501953125</ele>
        <time>2015-07-01T08:41:50Z</time>
      </trkpt>
      <trkpt lat="54.404358062893152" lon="16.384208807721734">
        <ele>3.501953125</ele>
        <time>2015-07-01T08:42:09Z</time>
      </trkpt>
      <trkpt lat="54.404672468081117" lon="16.384789673611522">
        <ele>3.982666015625</ele>
        <time>2015-07-01T08:42:20Z</time>
      </trkpt>
      <trkpt lat="54.406893169507384" lon="16.38875775039196">
        <ele>6.866455078125</ele>
        <time>2015-07-01T08:43:33Z</time>
      </trkpt>
      <trkpt lat="54.411150421947241" lon="16.395614985376596">
        <ele>5.9052734375</ele>
        <time>2015-07-01T08:45:31Z</time>
      </trkpt>
      <trkpt lat="54.412408042699099" lon="16.397659666836262">
        <ele>3.982666015625</ele>
        <time>2015-07-01T08:46:04Z</time>
      </trkpt>
      <trkpt lat="54.414817672222853" lon="16.401703096926212">
        <ele>1.579345703125</ele>
        <time>2015-07-01T08:47:15Z</time>
      </trkpt>
      <trkpt lat="54.41548059694469" lon="16.402450846508145">
        <ele>0.6180419921875</ele>
        <time>2015-07-01T08:47:34Z</time>
      </trkpt>
      <trkpt lat="54.416149975731969" lon="16.403577877208591">
        <ele>1.0986328125</ele>
        <time>2015-07-01T08:47:56Z</time>
      </trkpt>
      <trkpt lat="54.41646471619606" lon="16.404117168858647">
        <ele>0.6180419921875</ele>
        <time>2015-07-01T08:48:07Z</time>
      </trkpt>
      <trkpt lat="54.41661860793829" lon="16.404056651517749">
        <ele>1.579345703125</ele>
        <time>2015-07-01T08:48:11Z</time>
      </trkpt>
      <trkpt lat="54.420149484649301" lon="16.400132495909929">
        <ele>2.06005859375</ele>
        <time>2015-07-01T08:49:48Z</time>
      </trkpt>
      <trkpt lat="54.421020783483982" lon="16.398760713636875">
        <ele>2.06005859375</ele>
        <time>2015-07-01T08:50:26Z</time>
      </trkpt>
      <trkpt lat="54.421165119856596" lon="16.398785943165421">
        <ele>1.0986328125</ele>
        <time>2015-07-01T08:50:31Z</time>
      </trkpt>
      <trkpt lat="54.421471646055579" lon="16.399036562070251">
        <ele>1.579345703125</ele>
        <time>2015-07-01T08:50:43Z</time>
      </trkpt>
      <trkpt lat="54.421957042068243" lon="16.395854707807302">
        <ele>2.5406494140625</ele>
        <time>2015-07-01T08:51:32Z</time>
      </trkpt>
      <trkpt lat="54.42226960323751" lon="16.395289683714509">
        <ele>2.06005859375</ele>
        <time>2015-07-01T08:51:45Z</time>
      </trkpt>
      <trkpt lat="54.422360211610794" lon="16.395354643464088">
        <ele>1.579345703125</ele>
        <time>2015-07-01T08:51:54Z</time>
      </trkpt>
      <trkpt lat="54.422437995672226" lon="16.395357325673103">
        <ele>2.5406494140625</ele>
        <time>2015-07-01T08:52:38Z</time>
      </trkpt>
      <trkpt lat="54.422641340643167" lon="16.395320277661085">
        <ele>1.579345703125</ele>
        <time>2015-07-01T08:52:49Z</time>
      </trkpt>
      <trkpt lat="54.422712083905935" lon="16.395417926833034">
        <ele>1.579345703125</ele>
        <time>2015-07-01T08:52:53Z</time>
      </trkpt>
      <trkpt lat="54.424663558602333" lon="16.400911342352629">
        <ele>3.021240234375</ele>
        <time>2015-07-01T08:54:27Z</time>
      </trkpt>
      <trkpt lat="54.424854749813676" lon="16.401161709800363">
        <ele>3.021240234375</ele>
        <time>2015-07-01T08:54:33Z</time>
      </trkpt>
      <trkpt lat="54.424890456721187" lon="16.401528669521213">
        <ele>3.501953125</ele>
        <time>2015-07-01T08:54:41Z</time>
      </trkpt>
      <trkpt lat="54.424925828352571" lon="16.40162137337029">
        <ele>3.021240234375</ele>
        <time>2015-07-01T08:54:43Z</time>
      </trkpt>
      <trkpt lat="54.42516328766942" lon="16.40201079659164">
        <ele>3.021240234375</ele>
        <time>2015-07-01T08:54:53Z</time>
      </trkpt>
      <trkpt lat="54.42526395432651" lon="16.402132837101817">
        <ele>1.579345703125</ele>
        <time>2015-07-01T08:55:02Z</time>
      </trkpt>
      <trkpt lat="54.425388006493449" lon="16.402326291427016">
        <ele>1.0986328125</ele>
        <time>2015-07-01T08:55:10Z</time>
      </trkpt>
      <trkpt lat="54.42560107447207" lon="16.402840940281749">
        <ele>1.579345703125</ele>
        <time>2015-07-01T08:55:20Z</time>
      </trkpt>
      <trkpt lat="54.425699058920145" lon="16.403091810643673">
        <ele>3.021240234375</ele>
        <time>2015-07-01T08:55:25Z</time>
      </trkpt>
      <trkpt lat="54.426966151222587" lon="16.405244870111346">
        <ele>0.6180419921875</ele>
        <time>2015-07-01T08:56:16Z</time>
      </trkpt>
      <trkpt lat="54.427007893100381" lon="16.405215701088309">
        <ele>4.94384765625</ele>
        <time>2015-07-01T09:02:34Z</time>
      </trkpt>
      <trkpt lat="54.427177039906383" lon="16.405673436820507">
        <ele>3.982666015625</ele>
        <time>2015-07-01T09:02:46Z</time>
      </trkpt>
      <trkpt lat="54.42734258249402" lon="16.408039648085833">
        <ele>3.501953125</ele>
        <time>2015-07-01T09:03:21Z</time>
      </trkpt>
      <trkpt lat="54.427707865834236" lon="16.414833934977651">
        <ele>8.7891845703125</ele>
        <time>2015-07-01T09:05:13Z</time>
      </trkpt>
      <trkpt lat="54.427722785621881" lon="16.414733519777656">
        <ele>11.1925048828125</ele>
        <time>2015-07-01T09:06:02Z</time>
      </trkpt>
      <trkpt lat="54.427737118676305" lon="16.414708709344268">
        <ele>11.1925048828125</ele>
        <time>2015-07-01T09:07:26Z</time>
      </trkpt>
      <trkpt lat="54.427675344049931" lon="16.415013810619712">
        <ele>10.231201171875</ele>
        <time>2015-07-01T09:07:33Z</time>
      </trkpt>
      <trkpt lat="54.427120462059975" lon="16.416073618456721">
        <ele>9.7506103515625</ele>
        <time>2015-07-01T09:07:56Z</time>
      </trkpt>
      <trkpt lat="54.426539177075028" lon="16.417010799050331">
        <ele>11.1925048828125</ele>
        <time>2015-07-01T09:08:19Z</time>
      </trkpt>
      <trkpt lat="54.426508750766516" lon="16.41699948348105">
        <ele>14.076416015625</ele>
        <time>2015-07-01T09:08:39Z</time>
      </trkpt>
      <trkpt lat="54.426508331671357" lon="16.417038626968861">
        <ele>14.5570068359375</ele>
        <time>2015-07-01T09:08:44Z</time>
      </trkpt>
      <trkpt lat="54.426818126812577" lon="16.417390583083034">
        <ele>14.076416015625</ele>
        <time>2015-07-01T09:08:55Z</time>
      </trkpt>
      <trkpt lat="54.427669141441584" lon="16.418774351477623">
        <ele>12.15380859375</ele>
        <time>2015-07-01T09:09:18Z</time>
      </trkpt>
      <trkpt lat="54.428625935688615" lon="16.420448636636138">
        <ele>11.1925048828125</ele>
        <time>2015-07-01T09:09:46Z</time>
      </trkpt>
      <trkpt lat="54.429560517892241" lon="16.421991409733891">
        <ele>12.6343994140625</ele>
        <time>2015-07-01T09:10:13Z</time>
      </trkpt>
      <trkpt lat="54.429717594757676" lon="16.422229371964931">
        <ele>13.1151123046875</ele>
        <time>2015-07-01T09:10:17Z</time>
      </trkpt>
      <trkpt lat="54.430563915520906" lon="16.423857556656003">
        <ele>10.7117919921875</ele>
        <time>2015-07-01T09:10:41Z</time>
      </trkpt>
      <trkpt lat="54.430878907442093" lon="16.424381425604224">
        <ele>11.1925048828125</ele>
        <time>2015-07-01T09:10:49Z</time>
      </trkpt>
      <trkpt lat="54.431797480210662" lon="16.42602352425456">
        <ele>8.7891845703125</ele>
        <time>2015-07-01T09:11:13Z</time>
      </trkpt>
      <trkpt lat="54.433058956637979" lon="16.428225785493851">
        <ele>8.30859375</ele>
        <time>2015-07-01T09:11:44Z</time>
      </trkpt>
      <trkpt lat="54.43344259634614" lon="16.429168917238712">
        <ele>5.424560546875</ele>
        <time>2015-07-01T09:11:55Z</time>
      </trkpt>
      <trkpt lat="54.434217670932412" lon="16.43088879995048">
        <ele>6.866455078125</ele>
        <time>2015-07-01T09:12:17Z</time>
      </trkpt>
      <trkpt lat="54.434988889843225" lon="16.432919315993786">
        <ele>4.94384765625</ele>
        <time>2015-07-01T09:12:45Z</time>
      </trkpt>
      <trkpt lat="54.437148403376341" lon="16.438128417357802">
        <ele>10.7117919921875</ele>
        <time>2015-07-01T09:14:16Z</time>
      </trkpt>
      <trkpt lat="54.43711219355464" lon="16.437879558652639">
        <ele>10.7117919921875</ele>
        <time>2015-07-01T09:14:41Z</time>
      </trkpt>
      <trkpt lat="54.439680324867368" lon="16.444210577756166">
        <ele>10.231201171875</ele>
        <time>2015-07-01T09:16:20Z</time>
      </trkpt>
      <trkpt lat="54.441922148689628" lon="16.449617827311158">
        <ele>12.15380859375</ele>
        <time>2015-07-01T09:17:32Z</time>
      </trkpt>
      <trkpt lat="54.444093061611056" lon="16.45501627586782">
        <ele>9.7506103515625</ele>
        <time>2015-07-01T09:18:50Z</time>
      </trkpt>
      <trkpt lat="54.446039339527488" lon="16.459629675373435">
        <ele>9.2698974609375</ele>
        <time>2015-07-01T09:19:55Z</time>
      </trkpt>
      <trkpt lat="54.446575613692403" lon="16.460963236168027">
        <ele>8.7891845703125</ele>
        <time>2015-07-01T09:20:14Z</time>
      </trkpt>
      <trkpt lat="54.447340378537774" lon="16.464356230571866">
        <ele>8.7891845703125</ele>
        <time>2015-07-01T09:21:08Z</time>
      </trkpt>
      <trkpt lat="54.447341552004218" lon="16.464325720444322">
        <ele>11.6732177734375</ele>
        <time>2015-07-01T09:22:20Z</time>
      </trkpt>
      <trkpt lat="54.44748287089169" lon="16.465178746730089">
        <ele>9.7506103515625</ele>
        <time>2015-07-01T09:22:42Z</time>
      </trkpt>
      <trkpt lat="54.448420386761427" lon="16.469187391921878">
        <ele>10.231201171875</ele>
        <time>2015-07-01T09:23:39Z</time>
      </trkpt>
      <trkpt lat="54.449047688394785" lon="16.472045369446278">
        <ele>9.7506103515625</ele>
        <time>2015-07-01T09:24:14Z</time>
      </trkpt>
      <trkpt lat="54.45045517757535" lon="16.478419974446297">
        <ele>7.827880859375</ele>
        <time>2015-07-01T09:25:37Z</time>
      </trkpt>
      <trkpt lat="54.450925150886178" lon="16.479816231876612">
        <ele>5.9052734375</ele>
        <time>2015-07-01T09:25:55Z</time>
      </trkpt>
      <trkpt lat="54.45172562263906" lon="16.48160744458437">
        <ele>6.3858642578125</ele>
        <time>2015-07-01T09:26:20Z</time>
      </trkpt>
      <trkpt lat="54.452650398015976" lon="16.483587669208646">
        <ele>5.9052734375</ele>
        <time>2015-07-01T09:26:49Z</time>
      </trkpt>
      <trkpt lat="54.452916020527482" lon="16.484287641942501">
        <ele>8.30859375</ele>
        <time>2015-07-01T09:27:05Z</time>
      </trkpt>
      <trkpt lat="54.453729735687375" lon="16.486144149675965">
        <ele>12.15380859375</ele>
        <time>2015-07-01T09:27:51Z</time>
      </trkpt>
      <trkpt lat="54.454655265435576" lon="16.488317912444472">
        <ele>11.6732177734375</ele>
        <time>2015-07-01T09:28:41Z</time>
      </trkpt>
      <trkpt lat="54.455594206228852" lon="16.491441428661346">
        <ele>15.5184326171875</ele>
        <time>2015-07-01T09:29:45Z</time>
      </trkpt>
      <trkpt lat="54.457066403701901" lon="16.497125364840031">
        <ele>21.286376953125</ele>
        <time>2015-07-01T09:31:12Z</time>
      </trkpt>
      <trkpt lat="54.459454994648695" lon="16.506567243486643">
        <ele>16.96044921875</ele>
        <time>2015-07-01T09:33:14Z</time>
      </trkpt>
      <trkpt lat="54.459826229140162" lon="16.506486190482974">
        <ele>16.96044921875</ele>
        <time>2015-07-01T09:33:29Z</time>
      </trkpt>
      <trkpt lat="54.460320007055998" lon="16.506236912682652">
        <ele>19.36376953125</ele>
        <time>2015-07-01T09:33:51Z</time>
      </trkpt>
      <trkpt lat="54.460662240162492" lon="16.506056534126401">
        <ele>21.7669677734375</ele>
        <time>2015-07-01T09:34:10Z</time>
      </trkpt>
      <trkpt lat="54.461006820201874" lon="16.505889650434256">
        <ele>22.728271484375</ele>
        <time>2015-07-01T09:34:30Z</time>
      </trkpt>
      <trkpt lat="54.463843340054154" lon="16.50450705550611">
        <ele>40.5128173828125</ele>
        <time>2015-07-01T09:37:45Z</time>
      </trkpt>
      <trkpt lat="54.464588742703199" lon="16.504152668640018">
        <ele>49.16455078125</ele>
        <time>2015-07-01T09:39:23Z</time>
      </trkpt>
      <trkpt lat="54.464941788464785" lon="16.504014534875751">
        <ele>53.490478515625</ele>
        <time>2015-07-01T09:39:47Z</time>
      </trkpt>
      <trkpt lat="54.46574728935957" lon="16.504351571202278">
        <ele>54.932373046875</ele>
        <time>2015-07-01T09:40:47Z</time>
      </trkpt>
      <trkpt lat="54.465850638225675" lon="16.504639824852347">
        <ele>53.009765625</ele>
        <time>2015-07-01T09:41:04Z</time>
      </trkpt>
      <trkpt lat="54.466541223227978" lon="16.505897110328078">
        <ele>53.490478515625</ele>
        <time>2015-07-01T09:42:09Z</time>
      </trkpt>
      <trkpt lat="54.466557400301099" lon="16.505952598527074">
        <ele>53.97119140625</ele>
        <time>2015-07-01T09:44:32Z</time>
      </trkpt>
      <trkpt lat="54.468688247725368" lon="16.507530827075243">
        <ele>51.087158203125</ele>
        <time>2015-07-01T09:45:38Z</time>
      </trkpt>
      <trkpt lat="54.470232697203755" lon="16.50781505741179">
        <ele>49.16455078125</ele>
        <time>2015-07-01T09:46:03Z</time>
      </trkpt>
      <trkpt lat="54.473627870902419" lon="16.508070789277554">
        <ele>46.76123046875</ele>
        <time>2015-07-01T09:47:14Z</time>
      </trkpt>
      <trkpt lat="54.474341757595539" lon="16.508826753124595">
        <ele>48.6839599609375</ele>
        <time>2015-07-01T09:47:32Z</time>
      </trkpt>
      <trkpt lat="54.475514050573111" lon="16.510219238698483">
        <ele>50.6065673828125</ele>
        <time>2015-07-01T09:48:02Z</time>
      </trkpt>
      <trkpt lat="54.475834993645549" lon="16.51045368053019">
        <ele>50.6065673828125</ele>
        <time>2015-07-01T09:48:08Z</time>
      </trkpt>
      <trkpt lat="54.476221483200788" lon="16.510593071579933">
        <ele>50.1259765625</ele>
        <time>2015-07-01T09:48:14Z</time>
      </trkpt>
      <trkpt lat="54.477014662697911" lon="16.51022938080132">
        <ele>48.203369140625</ele>
        <time>2015-07-01T09:48:25Z</time>
      </trkpt>
      <trkpt lat="54.477596199139953" lon="16.509899720549583">
        <ele>47.2418212890625</ele>
        <time>2015-07-01T09:48:33Z</time>
      </trkpt>
      <trkpt lat="54.478939147666097" lon="16.508733713999391">
        <ele>37.628662109375</ele>
        <time>2015-07-01T09:48:53Z</time>
      </trkpt>
      <trkpt lat="54.479620428755879" lon="16.50805645622313">
        <ele>28.4962158203125</ele>
        <time>2015-07-01T09:49:03Z</time>
      </trkpt>
      <trkpt lat="54.479937851428986" lon="16.50778035633266">
        <ele>27.534912109375</ele>
        <time>2015-07-01T09:49:08Z</time>
      </trkpt>
      <trkpt lat="54.481815649196506" lon="16.508107418194413">
        <ele>16.96044921875</ele>
        <time>2015-07-01T09:49:38Z</time>
      </trkpt>
      <trkpt lat="54.482799349352717" lon="16.508368765935302">
        <ele>16.479736328125</ele>
        <time>2015-07-01T09:49:57Z</time>
      </trkpt>
      <trkpt lat="54.483828227967024" lon="16.508640926331282">
        <ele>15.5184326171875</ele>
        <time>2015-07-01T09:50:21Z</time>
      </trkpt>
      <trkpt lat="54.484272133558989" lon="16.508725835010409">
        <ele>15.5184326171875</ele>
        <time>2015-07-01T09:50:32Z</time>
      </trkpt>
      <trkpt lat="54.484519315883517" lon="16.508651152253151">
        <ele>14.5570068359375</ele>
        <time>2015-07-01T09:50:38Z</time>
      </trkpt>
      <trkpt lat="54.486736496910453" lon="16.50742169469595">
        <ele>13.1151123046875</ele>
        <time>2015-07-01T09:51:32Z</time>
      </trkpt>
      <trkpt lat="54.487018967047334" lon="16.507387328892946">
        <ele>12.6343994140625</ele>
        <time>2015-07-01T09:51:38Z</time>
      </trkpt>
      <trkpt lat="54.487971737980843" lon="16.507797203958035">
        <ele>12.15380859375</ele>
        <time>2015-07-01T09:51:59Z</time>
      </trkpt>
      <trkpt lat="54.488611277192831" lon="16.507888399064541">
        <ele>11.1925048828125</ele>
        <time>2015-07-01T09:52:14Z</time>
      </trkpt>
      <trkpt lat="54.489347711205482" lon="16.507435021921992">
        <ele>8.30859375</ele>
        <time>2015-07-01T09:52:30Z</time>
      </trkpt>
      <trkpt lat="54.492998868227005" lon="16.50527223944664">
        <ele>3.501953125</ele>
        <time>2015-07-01T09:53:43Z</time>
      </trkpt>
      <trkpt lat="54.494888400658965" lon="16.504136743023992">
        <ele>2.06005859375</ele>
        <time>2015-07-01T09:54:26Z</time>
      </trkpt>
      <trkpt lat="54.496127162128687" lon="16.503670960664749">
        <ele>2.5406494140625</ele>
        <time>2015-07-01T09:54:56Z</time>
      </trkpt>
      <trkpt lat="54.496376607567072" lon="16.50375016964972">
        <ele>2.5406494140625</ele>
        <time>2015-07-01T09:55:02Z</time>
      </trkpt>
      <trkpt lat="54.499422004446387" lon="16.504627838730812">
        <ele>1.579345703125</ele>
        <time>2015-07-01T09:56:08Z</time>
      </trkpt>
      <trkpt lat="54.500925550237298" lon="16.505057830363512">
        <ele>-0.8240966796875</ele>
        <time>2015-07-01T09:56:42Z</time>
      </trkpt>
      <trkpt lat="54.50307265855372" lon="16.505747074261308">
        <ele>0.137451171875</ele>
        <time>2015-07-01T09:57:38Z</time>
      </trkpt>
      <trkpt lat="54.504187032580376" lon="16.506620971485972">
        <ele>1.579345703125</ele>
        <time>2015-07-01T09:58:08Z</time>
      </trkpt>
      <trkpt lat="54.508347725495696" lon="16.509821685031056">
        <ele>12.6343994140625</ele>
        <time>2015-07-01T10:00:29Z</time>
      </trkpt>
      <trkpt lat="54.508904786780477" lon="16.509920591488481">
        <ele>14.076416015625</ele>
        <time>2015-07-01T10:00:51Z</time>
      </trkpt>
      <trkpt lat="54.509459249675274" lon="16.509337462484837">
        <ele>17.9217529296875</ele>
        <time>2015-07-01T10:01:21Z</time>
      </trkpt>
      <trkpt lat="54.510767078027129" lon="16.509738201275468">
        <ele>17.9217529296875</ele>
        <time>2015-07-01T10:02:15Z</time>
      </trkpt>
      <trkpt lat="54.511138228699565" lon="16.510402131825686">
        <ele>19.36376953125</ele>
        <time>2015-07-01T10:02:38Z</time>
      </trkpt>
      <trkpt lat="54.511222885921597" lon="16.510768588632345">
        <ele>21.7669677734375</ele>
        <time>2015-07-01T10:09:18Z</time>
      </trkpt>
      <trkpt lat="54.511479455977678" lon="16.511698896065354">
        <ele>21.7669677734375</ele>
        <time>2015-07-01T10:09:38Z</time>
      </trkpt>
      <trkpt lat="54.513407880440354" lon="16.517965123057365">
        <ele>16.479736328125</ele>
        <time>2015-07-01T10:11:13Z</time>
      </trkpt>
      <trkpt lat="54.51354593038559" lon="16.517995884642005">
        <ele>17.9217529296875</ele>
        <time>2015-07-01T10:11:17Z</time>
      </trkpt>
      <trkpt lat="54.513992266729474" lon="16.517645353451371">
        <ele>19.36376953125</ele>
        <time>2015-07-01T10:11:33Z</time>
      </trkpt>
      <trkpt lat="54.514809083193541" lon="16.516609350219369">
        <ele>17.441162109375</ele>
        <time>2015-07-01T10:12:01Z</time>
      </trkpt>
      <trkpt lat="54.515993278473616" lon="16.515485923737288">
        <ele>7.34716796875</ele>
        <time>2015-07-01T10:12:22Z</time>
      </trkpt>
      <trkpt lat="54.518283298239112" lon="16.513989586383104">
        <ele>4.94384765625</ele>
        <time>2015-07-01T10:13:14Z</time>
      </trkpt>
      <trkpt lat="54.519273536279798" lon="16.513914316892624">
        <ele>3.501953125</ele>
        <time>2015-07-01T10:13:32Z</time>
      </trkpt>
      <trkpt lat="54.526269659399986" lon="16.509317932650447">
        <ele>3.021240234375</ele>
        <time>2015-07-01T10:16:43Z</time>
      </trkpt>
      <trkpt lat="54.526547770947218" lon="16.510040452703834">
        <ele>3.021240234375</ele>
        <time>2015-07-01T10:16:57Z</time>
      </trkpt>
      <trkpt lat="54.536859020590782" lon="16.528507210314274">
        <ele>3.982666015625</ele>
        <time>2015-07-01T10:23:25Z</time>
      </trkpt>
      <trkpt lat="54.537781113758683" lon="16.529426537454128">
        <ele>7.827880859375</ele>
        <time>2015-07-01T10:23:53Z</time>
      </trkpt>
      <trkpt lat="54.538098368793726" lon="16.53003690764308">
        <ele>11.1925048828125</ele>
        <time>2015-07-01T10:24:13Z</time>
      </trkpt>
      <trkpt lat="54.539604596793652" lon="16.537944730371237">
        <ele>15.0377197265625</ele>
        <time>2015-07-01T10:26:51Z</time>
      </trkpt>
      <trkpt lat="54.539807522669435" lon="16.539059774950147">
        <ele>16.479736328125</ele>
        <time>2015-07-01T10:27:17Z</time>
      </trkpt>
      <trkpt lat="54.540173644199967" lon="16.540960287675261">
        <ele>21.286376953125</ele>
        <time>2015-07-01T10:28:09Z</time>
      </trkpt>
      <trkpt lat="54.540175152942538" lon="16.540891723707318">
        <ele>19.36376953125</ele>
        <time>2015-07-01T10:29:43Z</time>
      </trkpt>
      <trkpt lat="54.540413115173578" lon="16.540947547182441">
        <ele>18.883056640625</ele>
        <time>2015-07-01T10:30:11Z</time>
      </trkpt>
      <trkpt lat="54.54062869772315" lon="16.540728528052568">
        <ele>16.479736328125</ele>
        <time>2015-07-01T10:30:33Z</time>
      </trkpt>
      <trkpt lat="54.540992137044668" lon="16.540213041007519">
        <ele>14.5570068359375</ele>
        <time>2015-07-01T10:31:56Z</time>
      </trkpt>
      <trkpt lat="54.541019462049007" lon="16.540161073207855">
        <ele>15.9990234375</ele>
        <time>2015-07-01T10:32:27Z</time>
      </trkpt>
    </trkseg>
  </trk>

  <trk>
    <name>ACTIVE LOG 010</name>
    <extensions>
      <gpxx:TrackExtension xmlns:gpxx="http://www.garmin.com/xmlschemas/GpxExtensions/v3">
        <gpxx:DisplayColor>Green</gpxx:DisplayColor>
      </gpxx:TrackExtension>
    </extensions>
    <trkseg>
      <trkpt lat="54.540969422087073" lon="16.539998967200518">
        <ele>26.0928955078125</ele>
        <time>2015-07-01T11:26:41Z</time>
      </trkpt>
      <trkpt lat="54.541059779003263" lon="16.539961332455277">
        <ele>20.324951171875</ele>
        <time>2015-07-01T11:27:02Z</time>
      </trkpt>
      <trkpt lat="54.541000435128808" lon="16.540016233921051">
        <ele>20.8056640625</ele>
        <time>2015-07-01T11:27:19Z</time>
      </trkpt>
      <trkpt lat="54.540935810655355" lon="16.540092257782817">
        <ele>20.8056640625</ele>
        <time>2015-07-01T11:27:26Z</time>
      </trkpt>
      <trkpt lat="54.540965650230646" lon="16.540292920544744">
        <ele>21.286376953125</ele>
        <time>2015-07-01T11:27:31Z</time>
      </trkpt>
      <trkpt lat="54.541703592985868" lon="16.545194825157523">
        <ele>15.5184326171875</ele>
        <time>2015-07-01T11:29:06Z</time>
      </trkpt>
      <trkpt lat="54.54203937202692" lon="16.547002634033561">
        <ele>12.6343994140625</ele>
        <time>2015-07-01T11:29:47Z</time>
      </trkpt>
      <trkpt lat="54.542164094746113" lon="16.546979332342744">
        <ele>11.1925048828125</ele>
        <time>2015-07-01T11:29:54Z</time>
      </trkpt>
      <trkpt lat="54.542294265702367" lon="16.546747656539083">
        <ele>13.1151123046875</ele>
        <time>2015-07-01T11:30:08Z</time>
      </trkpt>
      <trkpt lat="54.542396860197186" lon="16.546845054253936">
        <ele>10.231201171875</ele>
        <time>2015-07-01T11:30:14Z</time>
      </trkpt>
      <trkpt lat="54.542612358927727" lon="16.5471560228616">
        <ele>6.866455078125</ele>
        <time>2015-07-01T11:30:26Z</time>
      </trkpt>
      <trkpt lat="54.542596600949764" lon="16.547437990084291">
        <ele>5.9052734375</ele>
        <time>2015-07-01T11:30:33Z</time>
      </trkpt>
      <trkpt lat="54.543831842020154" lon="16.549207158386707">
        <ele>6.3858642578125</ele>
        <time>2015-07-01T11:31:50Z</time>
      </trkpt>
      <trkpt lat="54.543951284140348" lon="16.549044800922275">
        <ele>3.021240234375</ele>
        <time>2015-07-01T11:32:06Z</time>
      </trkpt>
      <trkpt lat="54.544046251103282" lon="16.548982355743647">
        <ele>-0.8240966796875</ele>
        <time>2015-07-01T11:32:19Z</time>
      </trkpt>
      <trkpt lat="54.544061087071896" lon="16.548920329660177">
        <ele>-2.2659912109375</ele>
        <time>2015-07-01T11:33:03Z</time>
      </trkpt>
    </trkseg>
  </trk>

  <trk>
    <name>ACTIVE LOG 011</name>
    <extensions>
      <gpxx:TrackExtension xmlns:gpxx="http://www.garmin.com/xmlschemas/GpxExtensions/v3">
        <gpxx:DisplayColor>Green</gpxx:DisplayColor>
      </gpxx:TrackExtension>
    </extensions>
    <trkseg>
      <trkpt lat="54.544085562229156" lon="16.548898285254836">
        <ele>12.6343994140625</ele>
        <time>2015-07-01T12:47:11Z</time>
      </trkpt>
      <trkpt lat="54.544047676026821" lon="16.548869032412767">
        <ele>0.6180419921875</ele>
        <time>2015-07-01T12:50:32Z</time>
      </trkpt>
      <trkpt lat="54.543746011331677" lon="16.549048740416765">
        <ele>3.021240234375</ele>
        <time>2015-07-01T12:51:03Z</time>
      </trkpt>
      <trkpt lat="54.543791022151709" lon="16.548903062939644">
        <ele>12.15380859375</ele>
        <time>2015-07-01T12:55:15Z</time>
      </trkpt>
      <trkpt lat="54.543792949989438" lon="16.548931980505586">
        <ele>12.15380859375</ele>
        <time>2015-07-01T12:55:48Z</time>
      </trkpt>
      <trkpt lat="54.543328508734703" lon="16.548641547560692">
        <ele>11.6732177734375</ele>
        <time>2015-07-01T12:56:16Z</time>
      </trkpt>
      <trkpt lat="54.543240666389465" lon="16.548581784591079">
        <ele>11.6732177734375</ele>
        <time>2015-07-01T12:56:20Z</time>
      </trkpt>
      <trkpt lat="54.543249299749732" lon="16.548515064641833">
        <ele>11.1925048828125</ele>
        <time>2015-07-01T12:56:23Z</time>
      </trkpt>
      <trkpt lat="54.543302105739713" lon="16.548318676650524">
        <ele>12.6343994140625</ele>
        <time>2015-07-01T12:56:30Z</time>
      </trkpt>
      <trkpt lat="54.543112758547068" lon="16.548021454364061">
        <ele>12.6343994140625</ele>
        <time>2015-07-01T12:56:43Z</time>
      </trkpt>
      <trkpt lat="54.543005554005504" lon="16.547779971733689">
        <ele>12.6343994140625</ele>
        <time>2015-07-01T12:56:57Z</time>
      </trkpt>
      <trkpt lat="54.542992897331715" lon="16.547555504366755">
        <ele>11.6732177734375</ele>
        <time>2015-07-01T12:57:01Z</time>
      </trkpt>
      <trkpt lat="54.542775554582477" lon="16.546931220218539">
        <ele>10.7117919921875</ele>
        <time>2015-07-01T12:57:20Z</time>
      </trkpt>
      <trkpt lat="54.542531473562121" lon="16.546818735077977">
        <ele>4.94384765625</ele>
        <time>2015-07-01T13:08:15Z</time>
      </trkpt>
      <trkpt lat="54.542410103604198" lon="16.546761654317379">
        <ele>7.827880859375</ele>
        <time>2015-07-01T13:13:44Z</time>
      </trkpt>
      <trkpt lat="54.542398704215884" lon="16.54669820331037">
        <ele>5.9052734375</ele>
        <time>2015-07-01T13:13:57Z</time>
      </trkpt>
      <trkpt lat="54.542356040328741" lon="16.546784453094006">
        <ele>5.424560546875</ele>
        <time>2015-07-01T13:14:08Z</time>
      </trkpt>
      <trkpt lat="54.542113970965147" lon="16.54718485660851">
        <ele>3.982666015625</ele>
        <time>2015-07-01T13:14:21Z</time>
      </trkpt>
      <trkpt lat="54.541915319859982" lon="16.547530107200146">
        <ele>3.501953125</ele>
        <time>2015-07-01T13:14:34Z</time>
      </trkpt>
      <trkpt lat="54.541886821389198" lon="16.547599006444216">
        <ele>3.501953125</ele>
        <time>2015-07-01T13:14:37Z</time>
      </trkpt>
      <trkpt lat="54.541499158367515" lon="16.5482974704355">
        <ele>4.4632568359375</ele>
        <time>2015-07-01T13:15:00Z</time>
      </trkpt>
      <trkpt lat="54.540785690769553" lon="16.548919659107924">
        <ele>5.424560546875</ele>
        <time>2015-07-01T13:15:27Z</time>
      </trkpt>
      <trkpt lat="54.540427280589938" lon="16.548644565045834">
        <ele>5.424560546875</ele>
        <time>2015-07-01T13:15:43Z</time>
      </trkpt>
      <trkpt lat="54.540308341383934" lon="16.549461800605059">
        <ele>4.4632568359375</ele>
        <time>2015-07-01T13:15:57Z</time>
      </trkpt>
      <trkpt lat="54.539011493325233" lon="16.562364231795073">
        <ele>-3.7078857421875</ele>
        <time>2015-07-01T13:19:14Z</time>
      </trkpt>
      <trkpt lat="54.538452168926597" lon="16.56420674175024">
        <ele>-3.227294921875</ele>
        <time>2015-07-01T13:19:51Z</time>
      </trkpt>
      <trkpt lat="54.537600316107273" lon="16.567175192758441">
        <ele>-1.7852783203125</ele>
        <time>2015-07-01T13:20:32Z</time>
      </trkpt>
      <trkpt lat="54.53714232891798" lon="16.568457372486591">
        <ele>-1.7852783203125</ele>
        <time>2015-07-01T13:20:50Z</time>
      </trkpt>
      <trkpt lat="54.535292023792863" lon="16.571953883394599">
        <ele>-2.7467041015625</ele>
        <time>2015-07-01T13:21:49Z</time>
      </trkpt>
      <trkpt lat="54.534719120711088" lon="16.573987752199173">
        <ele>-2.7467041015625</ele>
        <time>2015-07-01T13:22:20Z</time>
      </trkpt>
      <trkpt lat="54.53355043195188" lon="16.578708104789257">
        <ele>-0.8240966796875</ele>
        <time>2015-07-01T13:23:32Z</time>
      </trkpt>
      <trkpt lat="54.533446915447712" lon="16.579994391649961">
        <ele>-0.3433837890625</ele>
        <time>2015-07-01T13:23:50Z</time>
      </trkpt>
      <trkpt lat="54.533422188833356" lon="16.580139817669988">
        <ele>-0.8240966796875</ele>
        <time>2015-07-01T13:23:55Z</time>
      </trkpt>
      <trkpt lat="54.533218424767256" lon="16.580194551497698">
        <ele>-0.8240966796875</ele>
        <time>2015-07-01T13:24:02Z</time>
      </trkpt>
      <trkpt lat="54.532091477885842" lon="16.580253643915057">
        <ele>-1.3046875</ele>
        <time>2015-07-01T13:24:26Z</time>
      </trkpt>
      <trkpt lat="54.531704150140285" lon="16.581525094807148">
        <ele>0.6180419921875</ele>
        <time>2015-07-01T13:24:44Z</time>
      </trkpt>
      <trkpt lat="54.531283210963011" lon="16.583287222310901">
        <ele>-1.7852783203125</ele>
        <time>2015-07-01T13:25:09Z</time>
      </trkpt>
      <trkpt lat="54.530787505209446" lon="16.586773758754134">
        <ele>-0.3433837890625</ele>
        <time>2015-07-01T13:25:56Z</time>
      </trkpt>
      <trkpt lat="54.53071927651763" lon="16.590201454237103">
        <ele>1.0986328125</ele>
        <time>2015-07-01T13:26:44Z</time>
      </trkpt>
      <trkpt lat="54.530671499669552" lon="16.590645862743258">
        <ele>0.6180419921875</ele>
        <time>2015-07-01T13:26:50Z</time>
      </trkpt>
      <trkpt lat="54.526195731014013" lon="16.598290661349893">
        <ele>-0.3433837890625</ele>
        <time>2015-07-01T13:29:08Z</time>
      </trkpt>
      <trkpt lat="54.52602599747479" lon="16.598652340471745">
        <ele>0.137451171875</ele>
        <time>2015-07-01T13:29:14Z</time>
      </trkpt>
      <trkpt lat="54.525894317775965" lon="16.599055761471391">
        <ele>0.137451171875</ele>
        <time>2015-07-01T13:29:20Z</time>
      </trkpt>
      <trkpt lat="54.525318900123239" lon="16.601697821170092">
        <ele>1.0986328125</ele>
        <time>2015-07-01T13:29:56Z</time>
      </trkpt>
      <trkpt lat="54.524674499407411" lon="16.604466447606683">
        <ele>2.06005859375</ele>
        <time>2015-07-01T13:30:38Z</time>
      </trkpt>
      <trkpt lat="54.523711418733001" lon="16.608376773074269">
        <ele>3.021240234375</ele>
        <time>2015-07-01T13:31:38Z</time>
      </trkpt>
      <trkpt lat="54.523532632738352" lon="16.608755551278591">
        <ele>1.579345703125</ele>
        <time>2015-07-01T13:31:50Z</time>
      </trkpt>
      <trkpt lat="54.523481335490942" lon="16.60874524153769">
        <ele>1.0986328125</ele>
        <time>2015-07-01T13:32:16Z</time>
      </trkpt>
      <trkpt lat="54.522049874067307" lon="16.608243165537715">
        <ele>0.137451171875</ele>
        <time>2015-07-01T13:33:32Z</time>
      </trkpt>
      <trkpt lat="54.521699845790863" lon="16.608503507450223">
        <ele>-1.7852783203125</ele>
        <time>2015-07-01T13:33:49Z</time>
      </trkpt>
      <trkpt lat="54.520302498713136" lon="16.609301213175058">
        <ele>-2.2659912109375</ele>
        <time>2015-07-01T13:34:45Z</time>
      </trkpt>
      <trkpt lat="54.519830429926515" lon="16.609448483213782">
        <ele>-1.7852783203125</ele>
        <time>2015-07-01T13:35:09Z</time>
      </trkpt>
      <trkpt lat="54.519273871555924" lon="16.60900323651731">
        <ele>-1.3046875</ele>
        <time>2015-07-01T13:35:38Z</time>
      </trkpt>
      <trkpt lat="54.519243612885475" lon="16.608925787732005">
        <ele>-0.3433837890625</ele>
        <time>2015-07-01T13:35:58Z</time>
      </trkpt>
      <trkpt lat="54.519116040319204" lon="16.608959985896945">
        <ele>-0.8240966796875</ele>
        <time>2015-07-01T13:36:08Z</time>
      </trkpt>
      <trkpt lat="54.519114615395665" lon="16.609148075804114">
        <ele>4.94384765625</ele>
        <time>2015-07-01T13:36:27Z</time>
      </trkpt>
      <trkpt lat="54.519091732800007" lon="16.609106417745352">
        <ele>2.5406494140625</ele>
        <time>2015-07-01T13:38:38Z</time>
      </trkpt>
      <trkpt lat="54.519041692838073" lon="16.608726801350713">
        <ele>2.06005859375</ele>
        <time>2015-07-01T13:38:56Z</time>
      </trkpt>
      <trkpt lat="54.517705030739307" lon="16.608279542997479">
        <ele>3.021240234375</ele>
        <time>2015-07-01T13:39:57Z</time>
      </trkpt>
      <trkpt lat="54.515710389241576" lon="16.607237756252289">
        <ele>1.579345703125</ele>
        <time>2015-07-01T13:41:03Z</time>
      </trkpt>
      <trkpt lat="54.514996754005551" lon="16.605729013681412">
        <ele>2.5406494140625</ele>
        <time>2015-07-01T13:41:32Z</time>
      </trkpt>
      <trkpt lat="54.514521332457662" lon="16.604680605232716">
        <ele>3.982666015625</ele>
        <time>2015-07-01T13:41:52Z</time>
      </trkpt>
      <trkpt lat="54.513293635100126" lon="16.601938465610147">
        <ele>2.5406494140625</ele>
        <time>2015-07-01T13:42:38Z</time>
      </trkpt>
      <trkpt lat="54.512810334563255" lon="16.600859714671969">
        <ele>2.5406494140625</ele>
        <time>2015-07-01T13:42:57Z</time>
      </trkpt>
      <trkpt lat="54.5103420317173" lon="16.598923914134502">
        <ele>3.501953125</ele>
        <time>2015-07-01T13:44:08Z</time>
      </trkpt>
      <trkpt lat="54.508879892528057" lon="16.597955720499158">
        <ele>4.4632568359375</ele>
        <time>2015-07-01T13:44:46Z</time>
      </trkpt>
      <trkpt lat="54.508823649957776" lon="16.597990756854415">
        <ele>4.4632568359375</ele>
        <time>2015-07-01T13:44:48Z</time>
      </trkpt>
      <trkpt lat="54.508773609995842" lon="16.598584279417992">
        <ele>4.94384765625</ele>
        <time>2015-07-01T13:45:00Z</time>
      </trkpt>
      <trkpt lat="54.508709153160453" lon="16.607569763436913">
        <ele>6.3858642578125</ele>
        <time>2015-07-01T13:47:21Z</time>
      </trkpt>
      <trkpt lat="54.508676547557116" lon="16.609335159882903">
        <ele>5.9052734375</ele>
        <time>2015-07-01T13:47:50Z</time>
      </trkpt>
      <trkpt lat="54.508696747943759" lon="16.6113540250808">
        <ele>4.4632568359375</ele>
        <time>2015-07-01T13:48:20Z</time>
      </trkpt>
      <trkpt lat="54.508907217532396" lon="16.614351645112038">
        <ele>3.982666015625</ele>
        <time>2015-07-01T13:49:03Z</time>
      </trkpt>
      <trkpt lat="54.50899145565927" lon="16.616180744022131">
        <ele>3.501953125</ele>
        <time>2015-07-01T13:49:32Z</time>
      </trkpt>
      <trkpt lat="54.508999083191156" lon="16.617354629561305">
        <ele>3.021240234375</ele>
        <time>2015-07-01T13:49:48Z</time>
      </trkpt>
      <trkpt lat="54.509066306054592" lon="16.618929505348206">
        <ele>0.6180419921875</ele>
        <time>2015-07-01T13:50:10Z</time>
      </trkpt>
      <trkpt lat="54.509273506700993" lon="16.622129883617163">
        <ele>-0.8240966796875</ele>
        <time>2015-07-01T13:50:56Z</time>
      </trkpt>
      <trkpt lat="54.509175522252917" lon="16.622272124513984">
        <ele>-0.3433837890625</ele>
        <time>2015-07-01T13:50:59Z</time>
      </trkpt>
      <trkpt lat="54.506554417312145" lon="16.62369679659605">
        <ele>3.021240234375</ele>
        <time>2015-07-01T13:52:16Z</time>
      </trkpt>
      <trkpt lat="54.50619793497026" lon="16.623793607577682">
        <ele>3.982666015625</ele>
        <time>2015-07-01T13:52:26Z</time>
      </trkpt>
      <trkpt lat="54.506115289404988" lon="16.624151263386011">
        <ele>4.94384765625</ele>
        <time>2015-07-01T13:52:33Z</time>
      </trkpt>
      <trkpt lat="54.506285609677434" lon="16.625747261568904">
        <ele>5.9052734375</ele>
        <time>2015-07-01T13:53:08Z</time>
      </trkpt>
      <trkpt lat="54.506346713751554" lon="16.625993689522147">
        <ele>5.9052734375</ele>
        <time>2015-07-01T13:53:46Z</time>
      </trkpt>
      <trkpt lat="54.507197476923466" lon="16.632648166269064">
        <ele>3.982666015625</ele>
        <time>2015-07-01T13:55:26Z</time>
      </trkpt>
      <trkpt lat="54.507214240729809" lon="16.63311461918056">
        <ele>3.982666015625</ele>
        <time>2015-07-01T13:55:32Z</time>
      </trkpt>
      <trkpt lat="54.50690109282732" lon="16.637939997017384">
        <ele>3.982666015625</ele>
        <time>2015-07-01T13:56:37Z</time>
      </trkpt>
      <trkpt lat="54.50703495182097" lon="16.643285639584064">
        <ele>7.34716796875</ele>
        <time>2015-07-01T13:58:02Z</time>
      </trkpt>
      <trkpt lat="54.507843051105738" lon="16.647314485162497">
        <ele>7.827880859375</ele>
        <time>2015-07-01T13:59:15Z</time>
      </trkpt>
      <trkpt lat="54.508172459900379" lon="16.649131011217833">
        <ele>8.7891845703125</ele>
        <time>2015-07-01T13:59:43Z</time>
      </trkpt>
      <trkpt lat="54.508511926978827" lon="16.650862544775009">
        <ele>8.30859375</ele>
        <time>2015-07-01T14:00:08Z</time>
      </trkpt>
      <trkpt lat="54.509047362953424" lon="16.654028724879026">
        <ele>6.3858642578125</ele>
        <time>2015-07-01T14:00:50Z</time>
      </trkpt>
      <trkpt lat="54.50910628773272" lon="16.654370706528425">
        <ele>5.9052734375</ele>
        <time>2015-07-01T14:00:55Z</time>
      </trkpt>
      <trkpt lat="54.510647552087903" lon="16.654502805322409">
        <ele>3.501953125</ele>
        <time>2015-07-01T14:01:39Z</time>
      </trkpt>
      <trkpt lat="54.511700067669153" lon="16.654215892776847">
        <ele>1.579345703125</ele>
        <time>2015-07-01T14:02:08Z</time>
      </trkpt>
      <trkpt lat="54.512329297140241" lon="16.654112711548805">
        <ele>2.06005859375</ele>
        <time>2015-07-01T14:02:22Z</time>
      </trkpt>
      <trkpt lat="54.514805059880018" lon="16.65513563901186">
        <ele>7.34716796875</ele>
        <time>2015-07-01T14:03:42Z</time>
      </trkpt>
      <trkpt lat="54.515422806143761" lon="16.654797093942761">
        <ele>6.3858642578125</ele>
        <time>2015-07-01T14:04:03Z</time>
      </trkpt>
      <trkpt lat="54.516912270337343" lon="16.654042052105069">
        <ele>6.3858642578125</ele>
        <time>2015-07-01T14:04:44Z</time>
      </trkpt>
      <trkpt lat="54.517100779339671" lon="16.65418186224997">
        <ele>5.424560546875</ele>
        <time>2015-07-01T14:04:49Z</time>
      </trkpt>
      <trkpt lat="54.517529765143991" lon="16.655254410579801">
        <ele>5.424560546875</ele>
        <time>2015-07-01T14:05:08Z</time>
      </trkpt>
      <trkpt lat="54.518522182479501" lon="16.660779844969511">
        <ele>7.34716796875</ele>
        <time>2015-07-01T14:06:31Z</time>
      </trkpt>
      <trkpt lat="54.518508855253458" lon="16.661260882392526">
        <ele>7.34716796875</ele>
        <time>2015-07-01T14:06:38Z</time>
      </trkpt>
      <trkpt lat="54.518224708735943" lon="16.663954071700573">
        <ele>6.866455078125</ele>
        <time>2015-07-01T14:07:16Z</time>
      </trkpt>
      <trkpt lat="54.517829082906246" lon="16.667798431590199">
        <ele>5.424560546875</ele>
        <time>2015-07-01T14:08:08Z</time>
      </trkpt>
      <trkpt lat="54.517802009359002" lon="16.673574652522802">
        <ele>4.4632568359375</ele>
        <time>2015-07-01T14:09:26Z</time>
      </trkpt>
      <trkpt lat="54.51775741763413" lon="16.680686948820949">
        <ele>4.94384765625</ele>
        <time>2015-07-01T14:11:06Z</time>
      </trkpt>
      <trkpt lat="54.517778120934963" lon="16.686856197193265">
        <ele>5.9052734375</ele>
        <time>2015-07-01T14:12:33Z</time>
      </trkpt>
      <trkpt lat="54.517881134524941" lon="16.688666436821222">
        <ele>6.3858642578125</ele>
        <time>2015-07-01T14:13:03Z</time>
      </trkpt>
      <trkpt lat="54.518261505290866" lon="16.695129470899701">
        <ele>6.866455078125</ele>
        <time>2015-07-01T14:14:47Z</time>
      </trkpt>
      <trkpt lat="54.518322190269828" lon="16.696247952058911">
        <ele>6.3858642578125</ele>
        <time>2015-07-01T14:15:06Z</time>
      </trkpt>
      <trkpt lat="54.518737010657787" lon="16.699319751933217">
        <ele>5.9052734375</ele>
        <time>2015-07-01T14:16:12Z</time>
      </trkpt>
      <trkpt lat="54.518729131668806" lon="16.699279518797994">
        <ele>7.34716796875</ele>
        <time>2015-07-01T14:17:03Z</time>
      </trkpt>
      <trkpt lat="54.518836420029402" lon="16.699638264253736">
        <ele>10.231201171875</ele>
        <time>2015-07-01T14:30:39Z</time>
      </trkpt>
      <trkpt lat="54.519064156338573" lon="16.700834194198251">
        <ele>9.2698974609375</ele>
        <time>2015-07-01T14:30:59Z</time>
      </trkpt>
      <trkpt lat="54.519311506301165" lon="16.702094413340092">
        <ele>8.7891845703125</ele>
        <time>2015-07-01T14:31:20Z</time>
      </trkpt>
      <trkpt lat="54.520090185105801" lon="16.705774152651429">
        <ele>9.7506103515625</ele>
        <time>2015-07-01T14:32:26Z</time>
      </trkpt>
      <trkpt lat="54.521242445334792" lon="16.711182910948992">
        <ele>11.6732177734375</ele>
        <time>2015-07-01T14:34:08Z</time>
      </trkpt>
      <trkpt lat="54.521520053967834" lon="16.712578162550926">
        <ele>16.479736328125</ele>
        <time>2015-07-01T14:34:44Z</time>
      </trkpt>
      <trkpt lat="54.521677298471332" lon="16.713554905727506">
        <ele>19.36376953125</ele>
        <time>2015-07-01T14:35:08Z</time>
      </trkpt>
      <trkpt lat="54.521968401968479" lon="16.715684998780489">
        <ele>25.1317138671875</ele>
        <time>2015-07-01T14:36:04Z</time>
      </trkpt>
      <trkpt lat="54.522048365324736" lon="16.717171696946025">
        <ele>27.534912109375</ele>
        <time>2015-07-01T14:36:33Z</time>
      </trkpt>
      <trkpt lat="54.522288590669632" lon="16.721246810629964">
        <ele>26.5736083984375</ele>
        <time>2015-07-01T14:37:39Z</time>
      </trkpt>
      <trkpt lat="54.522872054949403" lon="16.728049060329795">
        <ele>32.822265625</ele>
        <time>2015-07-01T14:39:30Z</time>
      </trkpt>
      <trkpt lat="54.52314748428762" lon="16.729300478473306">
        <ele>33.783447265625</ele>
        <time>2015-07-01T14:39:49Z</time>
      </trkpt>
      <trkpt lat="54.523171707987785" lon="16.729517066851258">
        <ele>33.3028564453125</ele>
        <time>2015-07-01T14:39:52Z</time>
      </trkpt>
      <trkpt lat="54.523159638047218" lon="16.729822503402829">
        <ele>32.341552734375</ele>
        <time>2015-07-01T14:39:56Z</time>
      </trkpt>
      <trkpt lat="54.522888734936714" lon="16.73156451433897">
        <ele>28.9769287109375</ele>
        <time>2015-07-01T14:40:15Z</time>
      </trkpt>
      <trkpt lat="54.521404383704066" lon="16.73933126963675">
        <ele>15.9990234375</ele>
        <time>2015-07-01T14:41:33Z</time>
      </trkpt>
      <trkpt lat="54.521079082041979" lon="16.741566136479378">
        <ele>14.5570068359375</ele>
        <time>2015-07-01T14:42:01Z</time>
      </trkpt>
      <trkpt lat="54.521347302943468" lon="16.744294697418809">
        <ele>15.0377197265625</ele>
        <time>2015-07-01T14:42:57Z</time>
      </trkpt>
      <trkpt lat="54.521452076733112" lon="16.746568623930216">
        <ele>14.076416015625</ele>
        <time>2015-07-01T14:43:38Z</time>
      </trkpt>
      <trkpt lat="54.521625330671668" lon="16.749909063801169">
        <ele>17.9217529296875</ele>
        <time>2015-07-01T14:44:50Z</time>
      </trkpt>
      <trkpt lat="54.521861197426915" lon="16.758125675842166">
        <ele>21.286376953125</ele>
        <time>2015-07-01T14:47:16Z</time>
      </trkpt>
      <trkpt lat="54.521939987316728" lon="16.760757928714156">
        <ele>20.8056640625</ele>
        <time>2015-07-01T14:47:50Z</time>
      </trkpt>
      <trkpt lat="54.521667407825589" lon="16.76152185536921">
        <ele>21.7669677734375</ele>
        <time>2015-07-01T14:48:03Z</time>
      </trkpt>
      <trkpt lat="54.521300364285707" lon="16.762846279889345">
        <ele>23.6895751953125</ele>
        <time>2015-07-01T14:48:27Z</time>
      </trkpt>
      <trkpt lat="54.520967518910766" lon="16.76528231240809">
        <ele>25.6123046875</ele>
        <time>2015-07-01T14:49:15Z</time>
      </trkpt>
      <trkpt lat="54.521025689318776" lon="16.765850186347961">
        <ele>26.5736083984375</ele>
        <time>2015-07-01T14:49:26Z</time>
      </trkpt>
      <trkpt lat="54.520919155329466" lon="16.767126498743892">
        <ele>28.4962158203125</ele>
        <time>2015-07-01T14:49:51Z</time>
      </trkpt>
      <trkpt lat="54.520803736522794" lon="16.775924814864993">
        <ele>26.5736083984375</ele>
        <time>2015-07-01T14:52:04Z</time>
      </trkpt>
      <trkpt lat="54.520993502810597" lon="16.776891415938735">
        <ele>28.4962158203125</ele>
        <time>2015-07-01T14:52:16Z</time>
      </trkpt>
      <trkpt lat="54.522428987547755" lon="16.785069638863206">
        <ele>18.883056640625</ele>
        <time>2015-07-01T14:53:45Z</time>
      </trkpt>
      <trkpt lat="54.522987641394138" lon="16.788163902238011">
        <ele>16.96044921875</ele>
        <time>2015-07-01T14:54:27Z</time>
      </trkpt>
      <trkpt lat="54.523701276630163" lon="16.791996443644166">
        <ele>12.6343994140625</ele>
        <time>2015-07-01T14:55:28Z</time>
      </trkpt>
      <trkpt lat="54.52476435340941" lon="16.797684906050563">
        <ele>11.6732177734375</ele>
        <time>2015-07-01T14:57:16Z</time>
      </trkpt>
      <trkpt lat="54.52709561213851" lon="16.810836279764771">
        <ele>6.866455078125</ele>
        <time>2015-07-01T15:00:26Z</time>
      </trkpt>
      <trkpt lat="54.527190160006285" lon="16.81123592890799">
        <ele>6.866455078125</ele>
        <time>2015-07-01T15:00:32Z</time>
      </trkpt>
      <trkpt lat="54.527682429179549" lon="16.812093732878566">
        <ele>5.424560546875</ele>
        <time>2015-07-01T15:00:49Z</time>
      </trkpt>
      <trkpt lat="54.529618481174111" lon="16.814336478710175">
        <ele>6.3858642578125</ele>
        <time>2015-07-01T15:01:59Z</time>
      </trkpt>
      <trkpt lat="54.53109847381711" lon="16.816024007275701">
        <ele>4.94384765625</ele>
        <time>2015-07-01T15:03:01Z</time>
      </trkpt>
      <trkpt lat="54.532266911119223" lon="16.817364692687988">
        <ele>4.4632568359375</ele>
        <time>2015-07-01T15:03:39Z</time>
      </trkpt>
      <trkpt lat="54.534121071919799" lon="16.81949570775032">
        <ele>4.94384765625</ele>
        <time>2015-07-01T15:04:43Z</time>
      </trkpt>
      <trkpt lat="54.534865384921432" lon="16.820373628288507">
        <ele>5.9052734375</ele>
        <time>2015-07-01T15:05:08Z</time>
      </trkpt>
      <trkpt lat="54.53592854551971" lon="16.821233024820685">
        <ele>4.94384765625</ele>
        <time>2015-07-01T15:05:39Z</time>
      </trkpt>
      <trkpt lat="54.538740674033761" lon="16.821215758100152">
        <ele>1.579345703125</ele>
        <time>2015-07-01T15:06:50Z</time>
      </trkpt>
      <trkpt lat="54.538996489718556" lon="16.821243669837713">
        <ele>1.0986328125</ele>
        <time>2015-07-01T15:06:56Z</time>
      </trkpt>
      <trkpt lat="54.539838870987296" lon="16.822040369734168">
        <ele>2.5406494140625</ele>
        <time>2015-07-01T15:07:17Z</time>
      </trkpt>
      <trkpt lat="54.54452745616436" lon="16.824072897434235">
        <ele>2.06005859375</ele>
        <time>2015-07-01T15:09:44Z</time>
      </trkpt>
      <trkpt lat="54.545307140797377" lon="16.824588887393475">
        <ele>3.501953125</ele>
        <time>2015-07-01T15:10:09Z</time>
      </trkpt>
      <trkpt lat="54.547014031559229" lon="16.827493133023381">
        <ele>4.94384765625</ele>
        <time>2015-07-01T15:11:14Z</time>
      </trkpt>
      <trkpt lat="54.547425331547856" lon="16.828242056071758">
        <ele>4.94384765625</ele>
        <time>2015-07-01T15:11:39Z</time>
      </trkpt>
      <trkpt lat="54.549177400767803" lon="16.831367081031203">
        <ele>3.501953125</ele>
        <time>2015-07-01T15:12:44Z</time>
      </trkpt>
      <trkpt lat="54.550260091200471" lon="16.833336157724261">
        <ele>1.0986328125</ele>
        <time>2015-07-01T15:13:20Z</time>
      </trkpt>
      <trkpt lat="54.552880609408021" lon="16.836397061124444">
        <ele>0.137451171875</ele>
        <time>2015-07-01T15:14:49Z</time>
      </trkpt>
      <trkpt lat="54.556411486119032" lon="16.83997118845582">
        <ele>0.137451171875</ele>
        <time>2015-07-01T15:17:04Z</time>
      </trkpt>
      <trkpt lat="54.557864740490913" lon="16.841477500274777">
        <ele>2.06005859375</ele>
        <time>2015-07-01T15:18:02Z</time>
      </trkpt>
      <trkpt lat="54.558692872524261" lon="16.842373944818974">
        <ele>3.501953125</ele>
        <time>2015-07-01T15:18:39Z</time>
      </trkpt>
      <trkpt lat="54.560651555657387" lon="16.844419129192829">
        <ele>5.9052734375</ele>
        <time>2015-07-01T15:20:13Z</time>
      </trkpt>
      <trkpt lat="54.560650549829006" lon="16.844400437548757">
        <ele>7.827880859375</ele>
        <time>2015-07-01T15:20:33Z</time>
      </trkpt>
      <trkpt lat="54.560677204281092" lon="16.844404628500342">
        <ele>8.7891845703125</ele>
        <time>2015-07-01T15:22:32Z</time>
      </trkpt>
      <trkpt lat="54.56084962002933" lon="16.844539744779468">
        <ele>7.34716796875</ele>
        <time>2015-07-01T15:29:27Z</time>
      </trkpt>
      <trkpt lat="54.561214987188578" lon="16.844901591539383">
        <ele>6.866455078125</ele>
        <time>2015-07-01T15:29:41Z</time>
      </trkpt>
      <trkpt lat="54.563106866553426" lon="16.846650810912251">
        <ele>6.3858642578125</ele>
        <time>2015-07-01T15:30:45Z</time>
      </trkpt>
      <trkpt lat="54.564163070172071" lon="16.847641384229064">
        <ele>5.9052734375</ele>
        <time>2015-07-01T15:31:20Z</time>
      </trkpt>
      <trkpt lat="54.566011447459459" lon="16.848901687189937">
        <ele>5.9052734375</ele>
        <time>2015-07-01T15:32:18Z</time>
      </trkpt>
      <trkpt lat="54.571115775033832" lon="16.851046029478312">
        <ele>1.579345703125</ele>
        <time>2015-07-01T15:34:44Z</time>
      </trkpt>
      <trkpt lat="54.572205422446132" lon="16.851509632542729">
        <ele>3.982666015625</ele>
        <time>2015-07-01T15:35:15Z</time>
      </trkpt>
      <trkpt lat="54.575701514258981" lon="16.852991553023458">
        <ele>0.6180419921875</ele>
        <time>2015-07-01T15:59:47Z</time>
      </trkpt>
      <trkpt lat="54.577585095539689" lon="16.854195613414049">
        <ele>-0.8240966796875</ele>
        <time>2015-07-01T16:00:28Z</time>
      </trkpt>
      <trkpt lat="54.578672898933291" lon="16.855486510321498">
        <ele>-2.2659912109375</ele>
        <time>2015-07-01T16:00:57Z</time>
      </trkpt>
      <trkpt lat="54.579474208876491" lon="16.856463421136141">
        <ele>-4.1885986328125</ele>
        <time>2015-07-01T16:01:22Z</time>
      </trkpt>
      <trkpt lat="54.579681241884828" lon="16.856894250959158">
        <ele>-2.7467041015625</ele>
        <time>2015-07-01T16:01:31Z</time>
      </trkpt>
      <trkpt lat="54.579633800312877" lon="16.857466651126742">
        <ele>-2.7467041015625</ele>
        <time>2015-07-01T16:01:42Z</time>
      </trkpt>
      <trkpt lat="54.57880524918437" lon="16.860050708055496">
        <ele>-0.8240966796875</ele>
        <time>2015-07-01T16:02:38Z</time>
      </trkpt>
      <trkpt lat="54.579437496140599" lon="16.860686643049121">
        <ele>2.06005859375</ele>
        <time>2015-07-01T16:03:00Z</time>
      </trkpt>
      <trkpt lat="54.580514067783952" lon="16.861840998753905">
        <ele>2.5406494140625</ele>
        <time>2015-07-01T16:03:26Z</time>
      </trkpt>
      <trkpt lat="54.580685645341873" lon="16.861970331519842">
        <ele>1.0986328125</ele>
        <time>2015-07-01T16:03:32Z</time>
      </trkpt>
      <trkpt lat="54.580894270911813" lon="16.861794730648398">
        <ele>-0.3433837890625</ele>
        <time>2015-07-01T16:03:38Z</time>
      </trkpt>
      <trkpt lat="54.580954955890775" lon="16.86170881614089">
        <ele>-0.8240966796875</ele>
        <time>2015-07-01T16:03:40Z</time>
      </trkpt>
      <trkpt lat="54.581594159826636" lon="16.860188758000731">
        <ele>-3.227294921875</ele>
        <time>2015-07-01T16:04:09Z</time>
      </trkpt>
      <trkpt lat="54.582532681524754" lon="16.858301488682628">
        <ele>-2.2659912109375</ele>
        <time>2015-07-01T16:05:10Z</time>
      </trkpt>
      <trkpt lat="54.582410221919417" lon="16.858445992693305">
        <ele>2.5406494140625</ele>
        <time>2015-07-01T16:07:57Z</time>
      </trkpt>
      <trkpt lat="54.582373676821589" lon="16.858413806185126">
        <ele>2.5406494140625</ele>
        <time>2015-07-01T16:08:19Z</time>
      </trkpt>
      <trkpt lat="54.580902988091111" lon="16.861215960234404">
        <ele>-0.8240966796875</ele>
        <time>2015-07-01T16:09:20Z</time>
      </trkpt>
      <trkpt lat="54.580692267045379" lon="16.861786264926195">
        <ele>-0.3433837890625</ele>
        <time>2015-07-01T16:09:32Z</time>
      </trkpt>
      <trkpt lat="54.580596461892128" lon="16.861891876906157">
        <ele>1.0986328125</ele>
        <time>2015-07-01T16:09:44Z</time>
      </trkpt>
      <trkpt lat="54.580463608726859" lon="16.862321114167571">
        <ele>1.0986328125</ele>
        <time>2015-07-01T16:09:54Z</time>
      </trkpt>
      <trkpt lat="54.581454936414957" lon="16.867030654102564">
        <ele>2.06005859375</ele>
        <time>2015-07-01T16:11:14Z</time>
      </trkpt>
      <trkpt lat="54.581493325531483" lon="16.867470620200038">
        <ele>1.579345703125</ele>
        <time>2015-07-01T16:11:20Z</time>
      </trkpt>
      <trkpt lat="54.58147949539125" lon="16.86761193908751">
        <ele>1.579345703125</ele>
        <time>2015-07-01T16:11:22Z</time>
      </trkpt>
      <trkpt lat="54.581228122115135" lon="16.868516094982624">
        <ele>2.5406494140625</ele>
        <time>2015-07-01T16:11:38Z</time>
      </trkpt>
      <trkpt lat="54.580631833523512" lon="16.870680721476674">
        <ele>2.06005859375</ele>
        <time>2015-07-01T16:12:15Z</time>
      </trkpt>
      <trkpt lat="54.579670177772641" lon="16.873005358502269">
        <ele>2.06005859375</ele>
        <time>2015-07-01T16:12:54Z</time>
      </trkpt>
      <trkpt lat="54.579229708760977" lon="16.873636683449149">
        <ele>1.579345703125</ele>
        <time>2015-07-01T16:13:07Z</time>
      </trkpt>
      <trkpt lat="54.579124348238111" lon="16.873917058110237">
        <ele>3.501953125</ele>
        <time>2015-07-01T16:13:14Z</time>
      </trkpt>
      <trkpt lat="54.579212358221412" lon="16.874086875468493">
        <ele>3.501953125</ele>
        <time>2015-07-01T16:13:18Z</time>
      </trkpt>
      <trkpt lat="54.579374464228749" lon="16.87449180521071">
        <ele>2.5406494140625</ele>
        <time>2015-07-01T16:13:33Z</time>
      </trkpt>
      <trkpt lat="54.579193247482181" lon="16.87469070777297">
        <ele>3.021240234375</ele>
        <time>2015-07-01T16:14:12Z</time>
      </trkpt>
    </trkseg>
  </trk>

  <trk>
    <name>ACTIVE LOG 012</name>
    <extensions>
      <gpxx:TrackExtension xmlns:gpxx="http://www.garmin.com/xmlschemas/GpxExtensions/v3">
        <gpxx:DisplayColor>Green</gpxx:DisplayColor>
      </gpxx:TrackExtension>
    </extensions>
    <trkseg>
      <trkpt lat="54.579370860010386" lon="16.874751225113869">
        <ele>-20.531005859375</ele>
        <time>2015-07-01T16:27:17Z</time>
      </trkpt>
    </trkseg>
  </trk>

</gpx>
